<?xml version="1.0" encoding="UTF-8" standalone="no" ?>
<gpx xmlns="http://www.topografix.com/GPX/1/1" xmlns:xsi="http://www.w3.org/2001/XMLSchema-instance" xsi:schemaLocation="http://www.topografix.com/GPX/1/1 http://www.topografix.com/GPX/1/1/gpx.xsd" version="1.1" creator="VisuGPX - https://www.visugpx.com">
  <metadata>
    <name>Laburthe</name>
    <desc><![CDATA[Circuit de la Burthe]]></desc>
  </metadata>
  <trk>
    <name><![CDATA[Tracé 23 mars 2016 1:02:58 PM]]></name>
    <trkseg>
      <trkpt lat="44.84102" lon="-0.52325">
        <ele>-1</ele>
        <time>2016-03-23T12:02:58Z</time>
      </trkpt>
      <trkpt lat="44.8409" lon="-0.52272">
        <ele>3</ele>
        <time>2016-03-23T12:03:02Z</time>
      </trkpt>
      <trkpt lat="44.8409" lon="-0.52279">
        <ele>3</ele>
        <time>2016-03-23T12:03:07Z</time>
      </trkpt>
      <trkpt lat="44.84106" lon="-0.5229">
        <ele>3</ele>
        <time>2016-03-23T12:03:11Z</time>
      </trkpt>
      <trkpt lat="44.84112" lon="-0.52299">
        <ele>3</ele>
        <time>2016-03-23T12:03:27Z</time>
      </trkpt>
      <trkpt lat="44.84125" lon="-0.52313">
        <ele>3</ele>
        <time>2016-03-23T12:03:32Z</time>
      </trkpt>
      <trkpt lat="44.84129" lon="-0.52335">
        <ele>55.7</ele>
        <time>2016-03-23T12:03:36Z</time>
      </trkpt>
      <trkpt lat="44.84134" lon="-0.52327">
        <ele>-14</ele>
        <time>2016-03-23T12:03:53Z</time>
      </trkpt>
      <trkpt lat="44.84126" lon="-0.52309">
        <ele>-23</ele>
        <time>2016-03-23T12:03:57Z</time>
      </trkpt>
      <trkpt lat="44.84122" lon="-0.52302">
        <ele>-24</ele>
        <time>2016-03-23T12:04:01Z</time>
      </trkpt>
      <trkpt lat="44.84112" lon="-0.52304">
        <ele>-21</ele>
        <time>2016-03-23T12:04:06Z</time>
      </trkpt>
      <trkpt lat="44.84108" lon="-0.52301">
        <ele>-13</ele>
        <time>2016-03-23T12:04:12Z</time>
      </trkpt>
      <trkpt lat="44.84088" lon="-0.52271">
        <ele>22</ele>
        <time>2016-03-23T12:04:17Z</time>
      </trkpt>
      <trkpt lat="44.84087" lon="-0.52281">
        <ele>10</ele>
        <time>2016-03-23T12:04:27Z</time>
      </trkpt>
      <trkpt lat="44.84078" lon="-0.52281">
        <ele>12</ele>
        <time>2016-03-23T12:04:44Z</time>
      </trkpt>
      <trkpt lat="44.84071" lon="-0.52279">
        <ele>17</ele>
        <time>2016-03-23T12:04:50Z</time>
      </trkpt>
      <trkpt lat="44.84062" lon="-0.52277">
        <ele>17</ele>
        <time>2016-03-23T12:05:00Z</time>
      </trkpt>
      <trkpt lat="44.84054" lon="-0.52271">
        <ele>15</ele>
        <time>2016-03-23T12:05:18Z</time>
      </trkpt>
      <trkpt lat="44.84046" lon="-0.5227">
        <ele>12</ele>
        <time>2016-03-23T12:05:25Z</time>
      </trkpt>
      <trkpt lat="44.84039" lon="-0.52262">
        <ele>10</ele>
        <time>2016-03-23T12:05:32Z</time>
      </trkpt>
      <trkpt lat="44.84036" lon="-0.5225">
        <ele>10</ele>
        <time>2016-03-23T12:05:39Z</time>
      </trkpt>
      <trkpt lat="44.84037" lon="-0.52239">
        <ele>10</ele>
        <time>2016-03-23T12:05:45Z</time>
      </trkpt>
      <trkpt lat="44.84035" lon="-0.52227">
        <ele>10</ele>
        <time>2016-03-23T12:05:52Z</time>
      </trkpt>
      <trkpt lat="44.84032" lon="-0.52215">
        <ele>10</ele>
        <time>2016-03-23T12:06:00Z</time>
      </trkpt>
      <trkpt lat="44.84028" lon="-0.52206">
        <ele>12</ele>
        <time>2016-03-23T12:06:04Z</time>
      </trkpt>
      <trkpt lat="44.84026" lon="-0.52194">
        <ele>15</ele>
        <time>2016-03-23T12:06:10Z</time>
      </trkpt>
      <trkpt lat="44.8402" lon="-0.52185">
        <ele>16</ele>
        <time>2016-03-23T12:06:23Z</time>
      </trkpt>
      <trkpt lat="44.84012" lon="-0.5218">
        <ele>16</ele>
        <time>2016-03-23T12:06:29Z</time>
      </trkpt>
      <trkpt lat="44.84004" lon="-0.52177">
        <ele>15</ele>
        <time>2016-03-23T12:06:38Z</time>
      </trkpt>
      <trkpt lat="44.83997" lon="-0.52168">
        <ele>14</ele>
        <time>2016-03-23T12:06:46Z</time>
      </trkpt>
      <trkpt lat="44.83997" lon="-0.52156">
        <ele>14</ele>
        <time>2016-03-23T12:06:53Z</time>
      </trkpt>
      <trkpt lat="44.83997" lon="-0.52145">
        <ele>13</ele>
        <time>2016-03-23T12:07:00Z</time>
      </trkpt>
      <trkpt lat="44.83997" lon="-0.52133">
        <ele>13</ele>
        <time>2016-03-23T12:07:07Z</time>
      </trkpt>
      <trkpt lat="44.83999" lon="-0.52121">
        <ele>13</ele>
        <time>2016-03-23T12:07:16Z</time>
      </trkpt>
      <trkpt lat="44.84005" lon="-0.52112">
        <ele>12</ele>
        <time>2016-03-23T12:07:24Z</time>
      </trkpt>
      <trkpt lat="44.8401" lon="-0.52103">
        <ele>12</ele>
        <time>2016-03-23T12:07:34Z</time>
      </trkpt>
      <trkpt lat="44.84012" lon="-0.52091">
        <ele>12</ele>
        <time>2016-03-23T12:07:41Z</time>
      </trkpt>
      <trkpt lat="44.84012" lon="-0.52077">
        <ele>12</ele>
        <time>2016-03-23T12:07:46Z</time>
      </trkpt>
      <trkpt lat="44.84016" lon="-0.52067">
        <ele>12</ele>
        <time>2016-03-23T12:07:53Z</time>
      </trkpt>
      <trkpt lat="44.84017" lon="-0.52055">
        <ele>12</ele>
        <time>2016-03-23T12:08:00Z</time>
      </trkpt>
      <trkpt lat="44.84019" lon="-0.52043">
        <ele>11</ele>
        <time>2016-03-23T12:08:07Z</time>
      </trkpt>
      <trkpt lat="44.84021" lon="-0.52032">
        <ele>11</ele>
        <time>2016-03-23T12:08:14Z</time>
      </trkpt>
      <trkpt lat="44.84021" lon="-0.5202">
        <ele>11</ele>
        <time>2016-03-23T12:08:19Z</time>
      </trkpt>
      <trkpt lat="44.84022" lon="-0.52008">
        <ele>11</ele>
        <time>2016-03-23T12:08:27Z</time>
      </trkpt>
      <trkpt lat="44.84022" lon="-0.51995">
        <ele>11</ele>
        <time>2016-03-23T12:08:34Z</time>
      </trkpt>
      <trkpt lat="44.84023" lon="-0.51983">
        <ele>10</ele>
        <time>2016-03-23T12:08:42Z</time>
      </trkpt>
      <trkpt lat="44.84022" lon="-0.51971">
        <ele>9</ele>
        <time>2016-03-23T12:08:50Z</time>
      </trkpt>
      <trkpt lat="44.84021" lon="-0.51959">
        <ele>7</ele>
        <time>2016-03-23T12:08:59Z</time>
      </trkpt>
      <trkpt lat="44.84021" lon="-0.51947">
        <ele>8</ele>
        <time>2016-03-23T12:09:05Z</time>
      </trkpt>
      <trkpt lat="44.84019" lon="-0.51936">
        <ele>6</ele>
        <time>2016-03-23T12:09:12Z</time>
      </trkpt>
      <trkpt lat="44.84018" lon="-0.51926">
        <ele>7</ele>
        <time>2016-03-23T12:09:18Z</time>
      </trkpt>
      <trkpt lat="44.84019" lon="-0.51916">
        <ele>8</ele>
        <time>2016-03-23T12:09:23Z</time>
      </trkpt>
      <trkpt lat="44.84021" lon="-0.51903">
        <ele>8</ele>
        <time>2016-03-23T12:09:30Z</time>
      </trkpt>
      <trkpt lat="44.84025" lon="-0.51893">
        <ele>4</ele>
        <time>2016-03-23T12:09:38Z</time>
      </trkpt>
      <trkpt lat="44.84025" lon="-0.51882">
        <ele>3</ele>
        <time>2016-03-23T12:09:42Z</time>
      </trkpt>
      <trkpt lat="44.84027" lon="-0.51868">
        <ele>4</ele>
        <time>2016-03-23T12:09:47Z</time>
      </trkpt>
      <trkpt lat="44.84025" lon="-0.51858">
        <ele>6</ele>
        <time>2016-03-23T12:09:51Z</time>
      </trkpt>
      <trkpt lat="44.84024" lon="-0.51846">
        <ele>7</ele>
        <time>2016-03-23T12:09:57Z</time>
      </trkpt>
      <trkpt lat="44.84022" lon="-0.51835">
        <ele>7</ele>
        <time>2016-03-23T12:10:03Z</time>
      </trkpt>
      <trkpt lat="44.84021" lon="-0.51823">
        <ele>8</ele>
        <time>2016-03-23T12:10:10Z</time>
      </trkpt>
      <trkpt lat="44.84018" lon="-0.51813">
        <ele>9</ele>
        <time>2016-03-23T12:10:17Z</time>
      </trkpt>
      <trkpt lat="44.84016" lon="-0.51802">
        <ele>8</ele>
        <time>2016-03-23T12:10:22Z</time>
      </trkpt>
      <trkpt lat="44.84012" lon="-0.51791">
        <ele>3</ele>
        <time>2016-03-23T12:10:29Z</time>
      </trkpt>
      <trkpt lat="44.84012" lon="-0.51779">
        <ele>1</ele>
        <time>2016-03-23T12:10:36Z</time>
      </trkpt>
      <trkpt lat="44.8401" lon="-0.51766">
        <ele>1</ele>
        <time>2016-03-23T12:10:43Z</time>
      </trkpt>
      <trkpt lat="44.84011" lon="-0.51755">
        <ele>-1</ele>
        <time>2016-03-23T12:10:49Z</time>
      </trkpt>
      <trkpt lat="44.84014" lon="-0.51745">
        <ele>-2</ele>
        <time>2016-03-23T12:10:55Z</time>
      </trkpt>
      <trkpt lat="44.84015" lon="-0.51734">
        <ele>-1</ele>
        <time>2016-03-23T12:11:01Z</time>
      </trkpt>
      <trkpt lat="44.84015" lon="-0.51722">
        <ele>64.5</ele>
        <time>2016-03-23T12:11:06Z</time>
      </trkpt>
      <trkpt lat="44.84015" lon="-0.5171">
        <ele>1</ele>
        <time>2016-03-23T12:11:11Z</time>
      </trkpt>
      <trkpt lat="44.84017" lon="-0.51699">
        <ele>1</ele>
        <time>2016-03-23T12:11:17Z</time>
      </trkpt>
      <trkpt lat="44.84019" lon="-0.51687">
        <ele>63.4</ele>
        <time>2016-03-23T12:11:24Z</time>
      </trkpt>
      <trkpt lat="44.84022" lon="-0.51677">
        <ele>63.6</ele>
        <time>2016-03-23T12:11:32Z</time>
      </trkpt>
      <trkpt lat="44.84024" lon="-0.51665">
        <ele>-1</ele>
        <time>2016-03-23T12:11:40Z</time>
      </trkpt>
      <trkpt lat="44.84026" lon="-0.51654">
        <ele>-2</ele>
        <time>2016-03-23T12:11:47Z</time>
      </trkpt>
      <trkpt lat="44.84029" lon="-0.51642">
        <ele>1</ele>
        <time>2016-03-23T12:11:55Z</time>
      </trkpt>
      <trkpt lat="44.84031" lon="-0.5163">
        <ele>2</ele>
        <time>2016-03-23T12:12:03Z</time>
      </trkpt>
      <trkpt lat="44.84036" lon="-0.51621">
        <ele>4</ele>
        <time>2016-03-23T12:12:11Z</time>
      </trkpt>
      <trkpt lat="44.84042" lon="-0.51612">
        <ele>6</ele>
        <time>2016-03-23T12:12:16Z</time>
      </trkpt>
      <trkpt lat="44.84049" lon="-0.51608">
        <ele>8</ele>
        <time>2016-03-23T12:12:21Z</time>
      </trkpt>
      <trkpt lat="44.84057" lon="-0.51605">
        <ele>11</ele>
        <time>2016-03-23T12:12:27Z</time>
      </trkpt>
      <trkpt lat="44.84065" lon="-0.51602">
        <ele>12</ele>
        <time>2016-03-23T12:12:35Z</time>
      </trkpt>
      <trkpt lat="44.84074" lon="-0.51601">
        <ele>13</ele>
        <time>2016-03-23T12:12:43Z</time>
      </trkpt>
      <trkpt lat="44.84082" lon="-0.51601">
        <ele>15</ele>
        <time>2016-03-23T12:12:49Z</time>
      </trkpt>
      <trkpt lat="44.8409" lon="-0.51598">
        <ele>15</ele>
        <time>2016-03-23T12:12:55Z</time>
      </trkpt>
      <trkpt lat="44.84098" lon="-0.51594">
        <ele>13</ele>
        <time>2016-03-23T12:13:02Z</time>
      </trkpt>
      <trkpt lat="44.84107" lon="-0.51591">
        <ele>13</ele>
        <time>2016-03-23T12:13:09Z</time>
      </trkpt>
      <trkpt lat="44.84115" lon="-0.51589">
        <ele>15</ele>
        <time>2016-03-23T12:13:14Z</time>
      </trkpt>
      <trkpt lat="44.84122" lon="-0.51582">
        <ele>15</ele>
        <time>2016-03-23T12:13:22Z</time>
      </trkpt>
      <trkpt lat="44.84129" lon="-0.51576">
        <ele>12</ele>
        <time>2016-03-23T12:13:30Z</time>
      </trkpt>
      <trkpt lat="44.84136" lon="-0.51569">
        <ele>13</ele>
        <time>2016-03-23T12:13:38Z</time>
      </trkpt>
      <trkpt lat="44.84143" lon="-0.51564">
        <ele>12</ele>
        <time>2016-03-23T12:13:44Z</time>
      </trkpt>
      <trkpt lat="44.84152" lon="-0.51561">
        <ele>11</ele>
        <time>2016-03-23T12:13:51Z</time>
      </trkpt>
      <trkpt lat="44.8416" lon="-0.51557">
        <ele>10</ele>
        <time>2016-03-23T12:13:58Z</time>
      </trkpt>
      <trkpt lat="44.84166" lon="-0.51552">
        <ele>9</ele>
        <time>2016-03-23T12:14:04Z</time>
      </trkpt>
      <trkpt lat="44.84175" lon="-0.51548">
        <ele>10</ele>
        <time>2016-03-23T12:14:10Z</time>
      </trkpt>
      <trkpt lat="44.84183" lon="-0.51552">
        <ele>11</ele>
        <time>2016-03-23T12:14:21Z</time>
      </trkpt>
      <trkpt lat="44.8419" lon="-0.51557">
        <ele>11</ele>
        <time>2016-03-23T12:14:30Z</time>
      </trkpt>
      <trkpt lat="44.84197" lon="-0.51559">
        <ele>13</ele>
        <time>2016-03-23T12:14:36Z</time>
      </trkpt>
      <trkpt lat="44.84204" lon="-0.5156">
        <ele>15</ele>
        <time>2016-03-23T12:14:40Z</time>
      </trkpt>
      <trkpt lat="44.84213" lon="-0.51561">
        <ele>17</ele>
        <time>2016-03-23T12:14:45Z</time>
      </trkpt>
      <trkpt lat="44.84222" lon="-0.51563">
        <ele>18</ele>
        <time>2016-03-23T12:14:50Z</time>
      </trkpt>
      <trkpt lat="44.8423" lon="-0.51564">
        <ele>17</ele>
        <time>2016-03-23T12:14:55Z</time>
      </trkpt>
      <trkpt lat="44.84237" lon="-0.51568">
        <ele>16</ele>
        <time>2016-03-23T12:15:01Z</time>
      </trkpt>
      <trkpt lat="44.84245" lon="-0.51575">
        <ele>13</ele>
        <time>2016-03-23T12:15:08Z</time>
      </trkpt>
      <trkpt lat="44.84251" lon="-0.5158">
        <ele>9</ele>
        <time>2016-03-23T12:15:14Z</time>
      </trkpt>
      <trkpt lat="44.8426" lon="-0.51582">
        <ele>6</ele>
        <time>2016-03-23T12:15:24Z</time>
      </trkpt>
      <trkpt lat="44.84266" lon="-0.51574">
        <ele>7</ele>
        <time>2016-03-23T12:15:31Z</time>
      </trkpt>
      <trkpt lat="44.84267" lon="-0.51563">
        <ele>6</ele>
        <time>2016-03-23T12:15:39Z</time>
      </trkpt>
      <trkpt lat="44.84266" lon="-0.51552">
        <ele>6</ele>
        <time>2016-03-23T12:15:45Z</time>
      </trkpt>
      <trkpt lat="44.84268" lon="-0.51541">
        <ele>6</ele>
        <time>2016-03-23T12:15:51Z</time>
      </trkpt>
      <trkpt lat="44.84274" lon="-0.51532">
        <ele>6</ele>
        <time>2016-03-23T12:15:59Z</time>
      </trkpt>
      <trkpt lat="44.8428" lon="-0.51526">
        <ele>7</ele>
        <time>2016-03-23T12:16:04Z</time>
      </trkpt>
      <trkpt lat="44.84287" lon="-0.51518">
        <ele>7</ele>
        <time>2016-03-23T12:16:11Z</time>
      </trkpt>
      <trkpt lat="44.84292" lon="-0.5151">
        <ele>6</ele>
        <time>2016-03-23T12:16:19Z</time>
      </trkpt>
      <trkpt lat="44.84298" lon="-0.51502">
        <ele>4</ele>
        <time>2016-03-23T12:16:27Z</time>
      </trkpt>
      <trkpt lat="44.84303" lon="-0.51493">
        <ele>3</ele>
        <time>2016-03-23T12:16:34Z</time>
      </trkpt>
      <trkpt lat="44.84308" lon="-0.51482">
        <ele>3</ele>
        <time>2016-03-23T12:16:40Z</time>
      </trkpt>
      <trkpt lat="44.84311" lon="-0.51471">
        <ele>4</ele>
        <time>2016-03-23T12:16:46Z</time>
      </trkpt>
      <trkpt lat="44.84314" lon="-0.5146">
        <ele>6</ele>
        <time>2016-03-23T12:16:52Z</time>
      </trkpt>
      <trkpt lat="44.84316" lon="-0.51449">
        <ele>9</ele>
        <time>2016-03-23T12:16:57Z</time>
      </trkpt>
      <trkpt lat="44.84322" lon="-0.51441">
        <ele>9</ele>
        <time>2016-03-23T12:17:02Z</time>
      </trkpt>
      <trkpt lat="44.84326" lon="-0.51431">
        <ele>8</ele>
        <time>2016-03-23T12:17:07Z</time>
      </trkpt>
      <trkpt lat="44.8433" lon="-0.5142">
        <ele>8</ele>
        <time>2016-03-23T12:17:14Z</time>
      </trkpt>
      <trkpt lat="44.84329" lon="-0.51407">
        <ele>7</ele>
        <time>2016-03-23T12:17:21Z</time>
      </trkpt>
      <trkpt lat="44.84328" lon="-0.51395">
        <ele>9</ele>
        <time>2016-03-23T12:17:26Z</time>
      </trkpt>
      <trkpt lat="44.84328" lon="-0.51383">
        <ele>11</ele>
        <time>2016-03-23T12:17:34Z</time>
      </trkpt>
      <trkpt lat="44.84332" lon="-0.51375">
        <ele>10</ele>
        <time>2016-03-23T12:17:40Z</time>
      </trkpt>
      <trkpt lat="44.84336" lon="-0.51363">
        <ele>6</ele>
        <time>2016-03-23T12:17:49Z</time>
      </trkpt>
      <trkpt lat="44.84333" lon="-0.51352">
        <ele>3</ele>
        <time>2016-03-23T12:18:01Z</time>
      </trkpt>
      <trkpt lat="44.84329" lon="-0.51342">
        <ele>6</ele>
        <time>2016-03-23T12:18:06Z</time>
      </trkpt>
      <trkpt lat="44.84328" lon="-0.51332">
        <ele>7</ele>
        <time>2016-03-23T12:18:12Z</time>
      </trkpt>
      <trkpt lat="44.84328" lon="-0.51321">
        <ele>8</ele>
        <time>2016-03-23T12:18:18Z</time>
      </trkpt>
      <trkpt lat="44.84329" lon="-0.5131">
        <ele>9</ele>
        <time>2016-03-23T12:18:24Z</time>
      </trkpt>
      <trkpt lat="44.84329" lon="-0.51298">
        <ele>6</ele>
        <time>2016-03-23T12:18:32Z</time>
      </trkpt>
      <trkpt lat="44.84329" lon="-0.51287">
        <ele>6</ele>
        <time>2016-03-23T12:18:39Z</time>
      </trkpt>
      <trkpt lat="44.8433" lon="-0.51275">
        <ele>3</ele>
        <time>2016-03-23T12:18:47Z</time>
      </trkpt>
      <trkpt lat="44.8433" lon="-0.51263">
        <ele>4</ele>
        <time>2016-03-23T12:18:53Z</time>
      </trkpt>
      <trkpt lat="44.84328" lon="-0.51253">
        <ele>4</ele>
        <time>2016-03-23T12:18:58Z</time>
      </trkpt>
      <trkpt lat="44.84326" lon="-0.51243">
        <ele>5</ele>
        <time>2016-03-23T12:19:03Z</time>
      </trkpt>
      <trkpt lat="44.84326" lon="-0.51231">
        <ele>6</ele>
        <time>2016-03-23T12:19:10Z</time>
      </trkpt>
      <trkpt lat="44.84326" lon="-0.5122">
        <ele>3</ele>
        <time>2016-03-23T12:19:20Z</time>
      </trkpt>
      <trkpt lat="44.84327" lon="-0.51209">
        <ele>68.1</ele>
        <time>2016-03-23T12:19:28Z</time>
      </trkpt>
      <trkpt lat="44.84327" lon="-0.51197">
        <ele>-3</ele>
        <time>2016-03-23T12:19:36Z</time>
      </trkpt>
      <trkpt lat="44.84325" lon="-0.51185">
        <ele>-8</ele>
        <time>2016-03-23T12:19:45Z</time>
      </trkpt>
      <trkpt lat="44.84322" lon="-0.51174">
        <ele>-10</ele>
        <time>2016-03-23T12:19:53Z</time>
      </trkpt>
      <trkpt lat="44.8432" lon="-0.51164">
        <ele>-7</ele>
        <time>2016-03-23T12:20:02Z</time>
      </trkpt>
      <trkpt lat="44.84321" lon="-0.51153">
        <ele>-6</ele>
        <time>2016-03-23T12:20:07Z</time>
      </trkpt>
      <trkpt lat="44.84318" lon="-0.51136">
        <ele>64.9</ele>
        <time>2016-03-23T12:20:11Z</time>
      </trkpt>
      <trkpt lat="44.84312" lon="-0.51128">
        <ele>1</ele>
        <time>2016-03-23T12:20:19Z</time>
      </trkpt>
      <trkpt lat="44.84307" lon="-0.51118">
        <ele>64.1</ele>
        <time>2016-03-23T12:20:28Z</time>
      </trkpt>
      <trkpt lat="44.84304" lon="-0.51107">
        <ele>-2</ele>
        <time>2016-03-23T12:20:33Z</time>
      </trkpt>
      <trkpt lat="44.84303" lon="-0.51095">
        <ele>-8</ele>
        <time>2016-03-23T12:20:40Z</time>
      </trkpt>
      <trkpt lat="44.843" lon="-0.51085">
        <ele>-7</ele>
        <time>2016-03-23T12:20:46Z</time>
      </trkpt>
      <trkpt lat="44.84296" lon="-0.51074">
        <ele>-6</ele>
        <time>2016-03-23T12:20:53Z</time>
      </trkpt>
      <trkpt lat="44.84292" lon="-0.51064">
        <ele>-6</ele>
        <time>2016-03-23T12:20:59Z</time>
      </trkpt>
      <trkpt lat="44.84292" lon="-0.51052">
        <ele>-7</ele>
        <time>2016-03-23T12:21:06Z</time>
      </trkpt>
      <trkpt lat="44.8429" lon="-0.5104">
        <ele>-10</ele>
        <time>2016-03-23T12:21:14Z</time>
      </trkpt>
      <trkpt lat="44.84285" lon="-0.51026">
        <ele>-7</ele>
        <time>2016-03-23T12:21:19Z</time>
      </trkpt>
      <trkpt lat="44.84283" lon="-0.51015">
        <ele>-6</ele>
        <time>2016-03-23T12:21:25Z</time>
      </trkpt>
      <trkpt lat="44.84279" lon="-0.51004">
        <ele>-6</ele>
        <time>2016-03-23T12:21:33Z</time>
      </trkpt>
      <trkpt lat="44.84277" lon="-0.50994">
        <ele>-4</ele>
        <time>2016-03-23T12:21:40Z</time>
      </trkpt>
      <trkpt lat="44.84277" lon="-0.50982">
        <ele>-4</ele>
        <time>2016-03-23T12:21:47Z</time>
      </trkpt>
      <trkpt lat="44.84278" lon="-0.5097">
        <ele>-4</ele>
        <time>2016-03-23T12:21:53Z</time>
      </trkpt>
      <trkpt lat="44.84276" lon="-0.50959">
        <ele>-3</ele>
        <time>2016-03-23T12:22:00Z</time>
      </trkpt>
      <trkpt lat="44.84279" lon="-0.50948">
        <ele>-1</ele>
        <time>2016-03-23T12:22:08Z</time>
      </trkpt>
      <trkpt lat="44.84279" lon="-0.50936">
        <ele>66</ele>
        <time>2016-03-23T12:22:15Z</time>
      </trkpt>
      <trkpt lat="44.84278" lon="-0.50926">
        <ele>1</ele>
        <time>2016-03-23T12:22:22Z</time>
      </trkpt>
      <trkpt lat="44.84276" lon="-0.50914">
        <ele>3</ele>
        <time>2016-03-23T12:22:29Z</time>
      </trkpt>
      <trkpt lat="44.84278" lon="-0.50902">
        <ele>2</ele>
        <time>2016-03-23T12:22:36Z</time>
      </trkpt>
      <trkpt lat="44.8428" lon="-0.5089">
        <ele>1</ele>
        <time>2016-03-23T12:22:43Z</time>
      </trkpt>
      <trkpt lat="44.84282" lon="-0.50879">
        <ele>3</ele>
        <time>2016-03-23T12:22:51Z</time>
      </trkpt>
      <trkpt lat="44.84284" lon="-0.50867">
        <ele>4</ele>
        <time>2016-03-23T12:22:57Z</time>
      </trkpt>
      <trkpt lat="44.84285" lon="-0.50856">
        <ele>5</ele>
        <time>2016-03-23T12:23:02Z</time>
      </trkpt>
      <trkpt lat="44.84286" lon="-0.50844">
        <ele>7</ele>
        <time>2016-03-23T12:23:09Z</time>
      </trkpt>
      <trkpt lat="44.8429" lon="-0.50834">
        <ele>8</ele>
        <time>2016-03-23T12:23:17Z</time>
      </trkpt>
      <trkpt lat="44.84291" lon="-0.50822">
        <ele>7</ele>
        <time>2016-03-23T12:23:24Z</time>
      </trkpt>
      <trkpt lat="44.8429" lon="-0.5081">
        <ele>8</ele>
        <time>2016-03-23T12:23:31Z</time>
      </trkpt>
      <trkpt lat="44.84293" lon="-0.50801">
        <ele>7</ele>
        <time>2016-03-23T12:23:36Z</time>
      </trkpt>
      <trkpt lat="44.84296" lon="-0.50789">
        <ele>8</ele>
        <time>2016-03-23T12:23:41Z</time>
      </trkpt>
      <trkpt lat="44.84294" lon="-0.50777">
        <ele>10</ele>
        <time>2016-03-23T12:23:46Z</time>
      </trkpt>
      <trkpt lat="44.84294" lon="-0.50765">
        <ele>12</ele>
        <time>2016-03-23T12:23:54Z</time>
      </trkpt>
      <trkpt lat="44.84293" lon="-0.50753">
        <ele>12</ele>
        <time>2016-03-23T12:24:02Z</time>
      </trkpt>
      <trkpt lat="44.84294" lon="-0.50741">
        <ele>11</ele>
        <time>2016-03-23T12:24:09Z</time>
      </trkpt>
      <trkpt lat="44.84297" lon="-0.50731">
        <ele>7</ele>
        <time>2016-03-23T12:24:22Z</time>
      </trkpt>
      <trkpt lat="44.84291" lon="-0.50723">
        <ele>6</ele>
        <time>2016-03-23T12:24:31Z</time>
      </trkpt>
      <trkpt lat="44.84283" lon="-0.50719">
        <ele>5</ele>
        <time>2016-03-23T12:24:39Z</time>
      </trkpt>
      <trkpt lat="44.84275" lon="-0.50721">
        <ele>2</ele>
        <time>2016-03-23T12:24:48Z</time>
      </trkpt>
      <trkpt lat="44.84266" lon="-0.50721">
        <ele>70.7</ele>
        <time>2016-03-23T12:24:56Z</time>
      </trkpt>
      <trkpt lat="44.84258" lon="-0.50721">
        <ele>70.4</ele>
        <time>2016-03-23T12:25:03Z</time>
      </trkpt>
      <trkpt lat="44.84254" lon="-0.5071">
        <ele>-2</ele>
        <time>2016-03-23T12:25:12Z</time>
      </trkpt>
      <trkpt lat="44.84249" lon="-0.50699">
        <ele>-2</ele>
        <time>2016-03-23T12:25:19Z</time>
      </trkpt>
      <trkpt lat="44.84243" lon="-0.50691">
        <ele>2</ele>
        <time>2016-03-23T12:25:25Z</time>
      </trkpt>
      <trkpt lat="44.84236" lon="-0.50684">
        <ele>6</ele>
        <time>2016-03-23T12:25:31Z</time>
      </trkpt>
      <trkpt lat="44.84236" lon="-0.50673">
        <ele>7</ele>
        <time>2016-03-23T12:25:41Z</time>
      </trkpt>
      <trkpt lat="44.8423" lon="-0.50664">
        <ele>9</ele>
        <time>2016-03-23T12:25:47Z</time>
      </trkpt>
      <trkpt lat="44.84229" lon="-0.5066">
        <ele>7</ele>
        <time>2016-03-23T12:26:42Z</time>
      </trkpt>
      <trkpt lat="44.84219" lon="-0.5065">
        <ele>5</ele>
        <time>2016-03-23T12:26:46Z</time>
      </trkpt>
      <trkpt lat="44.84213" lon="-0.5064">
        <ele>6</ele>
        <time>2016-03-23T12:26:55Z</time>
      </trkpt>
      <trkpt lat="44.84208" lon="-0.5063">
        <ele>5</ele>
        <time>2016-03-23T12:27:03Z</time>
      </trkpt>
      <trkpt lat="44.84202" lon="-0.50624">
        <ele>6</ele>
        <time>2016-03-23T12:27:09Z</time>
      </trkpt>
      <trkpt lat="44.84194" lon="-0.50621">
        <ele>8</ele>
        <time>2016-03-23T12:27:15Z</time>
      </trkpt>
      <trkpt lat="44.84185" lon="-0.50619">
        <ele>8</ele>
        <time>2016-03-23T12:27:23Z</time>
      </trkpt>
      <trkpt lat="44.84177" lon="-0.50619">
        <ele>8</ele>
        <time>2016-03-23T12:27:30Z</time>
      </trkpt>
      <trkpt lat="44.84168" lon="-0.50623">
        <ele>9</ele>
        <time>2016-03-23T12:27:37Z</time>
      </trkpt>
      <trkpt lat="44.84161" lon="-0.50627">
        <ele>13</ele>
        <time>2016-03-23T12:27:44Z</time>
      </trkpt>
      <trkpt lat="44.84156" lon="-0.50637">
        <ele>13</ele>
        <time>2016-03-23T12:27:50Z</time>
      </trkpt>
      <trkpt lat="44.84152" lon="-0.50648">
        <ele>13</ele>
        <time>2016-03-23T12:27:57Z</time>
      </trkpt>
      <trkpt lat="44.84147" lon="-0.50657">
        <ele>11</ele>
        <time>2016-03-23T12:28:03Z</time>
      </trkpt>
      <trkpt lat="44.84143" lon="-0.50666">
        <ele>10</ele>
        <time>2016-03-23T12:28:09Z</time>
      </trkpt>
      <trkpt lat="44.84138" lon="-0.50675">
        <ele>12</ele>
        <time>2016-03-23T12:28:16Z</time>
      </trkpt>
      <trkpt lat="44.84132" lon="-0.50684">
        <ele>10</ele>
        <time>2016-03-23T12:28:24Z</time>
      </trkpt>
      <trkpt lat="44.84126" lon="-0.50691">
        <ele>7</ele>
        <time>2016-03-23T12:28:33Z</time>
      </trkpt>
      <trkpt lat="44.8412" lon="-0.50699">
        <ele>6</ele>
        <time>2016-03-23T12:28:41Z</time>
      </trkpt>
      <trkpt lat="44.84114" lon="-0.50703">
        <ele>6</ele>
        <time>2016-03-23T12:28:46Z</time>
      </trkpt>
      <trkpt lat="44.84108" lon="-0.50712">
        <ele>5</ele>
        <time>2016-03-23T12:28:50Z</time>
      </trkpt>
      <trkpt lat="44.841" lon="-0.50716">
        <ele>2</ele>
        <time>2016-03-23T12:28:56Z</time>
      </trkpt>
      <trkpt lat="44.84092" lon="-0.50721">
        <ele>-1</ele>
        <time>2016-03-23T12:29:04Z</time>
      </trkpt>
      <trkpt lat="44.84083" lon="-0.50724">
        <ele>-4</ele>
        <time>2016-03-23T12:29:11Z</time>
      </trkpt>
      <trkpt lat="44.84075" lon="-0.50727">
        <ele>-5</ele>
        <time>2016-03-23T12:29:21Z</time>
      </trkpt>
      <trkpt lat="44.84068" lon="-0.50733">
        <ele>-3</ele>
        <time>2016-03-23T12:29:28Z</time>
      </trkpt>
      <trkpt lat="44.8406" lon="-0.50737">
        <ele>73.5</ele>
        <time>2016-03-23T12:29:38Z</time>
      </trkpt>
      <trkpt lat="44.84052" lon="-0.50734">
        <ele>-2</ele>
        <time>2016-03-23T12:29:49Z</time>
      </trkpt>
      <trkpt lat="44.84048" lon="-0.50723">
        <ele>-7</ele>
        <time>2016-03-23T12:29:58Z</time>
      </trkpt>
      <trkpt lat="44.84042" lon="-0.50716">
        <ele>-6</ele>
        <time>2016-03-23T12:30:05Z</time>
      </trkpt>
      <trkpt lat="44.84036" lon="-0.5071">
        <ele>-4</ele>
        <time>2016-03-23T12:30:10Z</time>
      </trkpt>
      <trkpt lat="44.8403" lon="-0.50701">
        <ele>-3</ele>
        <time>2016-03-23T12:30:19Z</time>
      </trkpt>
      <trkpt lat="44.84026" lon="-0.5069">
        <ele>-6</ele>
        <time>2016-03-23T12:30:27Z</time>
      </trkpt>
      <trkpt lat="44.8402" lon="-0.50682">
        <ele>-5</ele>
        <time>2016-03-23T12:30:34Z</time>
      </trkpt>
      <trkpt lat="44.84016" lon="-0.50672">
        <ele>-4</ele>
        <time>2016-03-23T12:30:40Z</time>
      </trkpt>
      <trkpt lat="44.84011" lon="-0.50662">
        <ele>-2</ele>
        <time>2016-03-23T12:30:46Z</time>
      </trkpt>
      <trkpt lat="44.84006" lon="-0.50651">
        <ele>-2</ele>
        <time>2016-03-23T12:31:10Z</time>
      </trkpt>
      <trkpt lat="44.84" lon="-0.50644">
        <ele>-3</ele>
        <time>2016-03-23T12:31:19Z</time>
      </trkpt>
      <trkpt lat="44.83994" lon="-0.50636">
        <ele>-1</ele>
        <time>2016-03-23T12:31:25Z</time>
      </trkpt>
      <trkpt lat="44.83987" lon="-0.50631">
        <ele>2</ele>
        <time>2016-03-23T12:31:30Z</time>
      </trkpt>
      <trkpt lat="44.8398" lon="-0.50626">
        <ele>3</ele>
        <time>2016-03-23T12:31:35Z</time>
      </trkpt>
      <trkpt lat="44.83973" lon="-0.50619">
        <ele>7</ele>
        <time>2016-03-23T12:31:40Z</time>
      </trkpt>
      <trkpt lat="44.83966" lon="-0.50616">
        <ele>8</ele>
        <time>2016-03-23T12:31:44Z</time>
      </trkpt>
      <trkpt lat="44.83959" lon="-0.5061">
        <ele>12</ele>
        <time>2016-03-23T12:31:49Z</time>
      </trkpt>
      <trkpt lat="44.83952" lon="-0.50605">
        <ele>10</ele>
        <time>2016-03-23T12:31:56Z</time>
      </trkpt>
      <trkpt lat="44.83945" lon="-0.50598">
        <ele>12</ele>
        <time>2016-03-23T12:32:02Z</time>
      </trkpt>
      <trkpt lat="44.83937" lon="-0.50596">
        <ele>12</ele>
        <time>2016-03-23T12:32:08Z</time>
      </trkpt>
      <trkpt lat="44.83929" lon="-0.50598">
        <ele>12</ele>
        <time>2016-03-23T12:32:15Z</time>
      </trkpt>
      <trkpt lat="44.8392" lon="-0.50598">
        <ele>12</ele>
        <time>2016-03-23T12:32:23Z</time>
      </trkpt>
      <trkpt lat="44.83911" lon="-0.50603">
        <ele>18</ele>
        <time>2016-03-23T12:32:27Z</time>
      </trkpt>
      <trkpt lat="44.83903" lon="-0.50604">
        <ele>18</ele>
        <time>2016-03-23T12:32:33Z</time>
      </trkpt>
      <trkpt lat="44.83894" lon="-0.50602">
        <ele>16</ele>
        <time>2016-03-23T12:32:40Z</time>
      </trkpt>
      <trkpt lat="44.83887" lon="-0.50606">
        <ele>13</ele>
        <time>2016-03-23T12:32:48Z</time>
      </trkpt>
      <trkpt lat="44.83878" lon="-0.50606">
        <ele>14</ele>
        <time>2016-03-23T12:32:57Z</time>
      </trkpt>
      <trkpt lat="44.8387" lon="-0.50602">
        <ele>7</ele>
        <time>2016-03-23T12:33:07Z</time>
      </trkpt>
      <trkpt lat="44.83862" lon="-0.50598">
        <ele>3</ele>
        <time>2016-03-23T12:33:14Z</time>
      </trkpt>
      <trkpt lat="44.83855" lon="-0.50593">
        <ele>1</ele>
        <time>2016-03-23T12:33:21Z</time>
      </trkpt>
      <trkpt lat="44.83848" lon="-0.50585">
        <ele>2</ele>
        <time>2016-03-23T12:33:28Z</time>
      </trkpt>
      <trkpt lat="44.83843" lon="-0.50575">
        <ele>3</ele>
        <time>2016-03-23T12:33:35Z</time>
      </trkpt>
      <trkpt lat="44.83838" lon="-0.50566">
        <ele>3</ele>
        <time>2016-03-23T12:33:42Z</time>
      </trkpt>
      <trkpt lat="44.83834" lon="-0.50555">
        <ele>1</ele>
        <time>2016-03-23T12:33:50Z</time>
      </trkpt>
      <trkpt lat="44.83831" lon="-0.50544">
        <ele>67.9</ele>
        <time>2016-03-23T12:33:55Z</time>
      </trkpt>
      <trkpt lat="44.83828" lon="-0.50532">
        <ele>67.8</ele>
        <time>2016-03-23T12:34:03Z</time>
      </trkpt>
      <trkpt lat="44.83826" lon="-0.50521">
        <ele>2</ele>
        <time>2016-03-23T12:34:10Z</time>
      </trkpt>
      <trkpt lat="44.83823" lon="-0.5051">
        <ele>2</ele>
        <time>2016-03-23T12:34:17Z</time>
      </trkpt>
      <trkpt lat="44.8382" lon="-0.50499">
        <ele>67.5</ele>
        <time>2016-03-23T12:34:25Z</time>
      </trkpt>
      <trkpt lat="44.83817" lon="-0.50488">
        <ele>-1</ele>
        <time>2016-03-23T12:34:32Z</time>
      </trkpt>
      <trkpt lat="44.83812" lon="-0.5048">
        <ele>67.2</ele>
        <time>2016-03-23T12:34:37Z</time>
      </trkpt>
      <trkpt lat="44.83807" lon="-0.50471">
        <ele>67.1</ele>
        <time>2016-03-23T12:34:43Z</time>
      </trkpt>
      <trkpt lat="44.83803" lon="-0.50462">
        <ele>67.3</ele>
        <time>2016-03-23T12:34:49Z</time>
      </trkpt>
      <trkpt lat="44.83798" lon="-0.50453">
        <ele>2</ele>
        <time>2016-03-23T12:34:54Z</time>
      </trkpt>
      <trkpt lat="44.83793" lon="-0.50444">
        <ele>4</ele>
        <time>2016-03-23T12:35:00Z</time>
      </trkpt>
      <trkpt lat="44.83786" lon="-0.50437">
        <ele>4</ele>
        <time>2016-03-23T12:35:07Z</time>
      </trkpt>
      <trkpt lat="44.83782" lon="-0.50428">
        <ele>3</ele>
        <time>2016-03-23T12:35:15Z</time>
      </trkpt>
      <trkpt lat="44.83776" lon="-0.50421">
        <ele>4</ele>
        <time>2016-03-23T12:35:21Z</time>
      </trkpt>
      <trkpt lat="44.8377" lon="-0.50412">
        <ele>5</ele>
        <time>2016-03-23T12:35:28Z</time>
      </trkpt>
      <trkpt lat="44.83764" lon="-0.50402">
        <ele>3</ele>
        <time>2016-03-23T12:35:37Z</time>
      </trkpt>
      <trkpt lat="44.83758" lon="-0.50396">
        <ele>3</ele>
        <time>2016-03-23T12:35:44Z</time>
      </trkpt>
      <trkpt lat="44.83751" lon="-0.50388">
        <ele>4</ele>
        <time>2016-03-23T12:35:50Z</time>
      </trkpt>
      <trkpt lat="44.83744" lon="-0.50381">
        <ele>5</ele>
        <time>2016-03-23T12:35:57Z</time>
      </trkpt>
      <trkpt lat="44.83741" lon="-0.5037">
        <ele>3</ele>
        <time>2016-03-23T12:36:04Z</time>
      </trkpt>
      <trkpt lat="44.83736" lon="-0.50361">
        <ele>2</ele>
        <time>2016-03-23T12:36:10Z</time>
      </trkpt>
      <trkpt lat="44.83731" lon="-0.50353">
        <ele>2</ele>
        <time>2016-03-23T12:36:16Z</time>
      </trkpt>
      <trkpt lat="44.83724" lon="-0.50343">
        <ele>2</ele>
        <time>2016-03-23T12:36:23Z</time>
      </trkpt>
      <trkpt lat="44.83718" lon="-0.50335">
        <ele>4</ele>
        <time>2016-03-23T12:36:28Z</time>
      </trkpt>
      <trkpt lat="44.83712" lon="-0.50327">
        <ele>5</ele>
        <time>2016-03-23T12:36:33Z</time>
      </trkpt>
      <trkpt lat="44.83705" lon="-0.50321">
        <ele>3</ele>
        <time>2016-03-23T12:36:40Z</time>
      </trkpt>
      <trkpt lat="44.837" lon="-0.50312">
        <ele>2</ele>
        <time>2016-03-23T12:36:48Z</time>
      </trkpt>
      <trkpt lat="44.83693" lon="-0.50304">
        <ele>4</ele>
        <time>2016-03-23T12:36:54Z</time>
      </trkpt>
      <trkpt lat="44.83686" lon="-0.50298">
        <ele>10</ele>
        <time>2016-03-23T12:37:02Z</time>
      </trkpt>
      <trkpt lat="44.83679" lon="-0.50295">
        <ele>9</ele>
        <time>2016-03-23T12:37:08Z</time>
      </trkpt>
      <trkpt lat="44.83671" lon="-0.50289">
        <ele>13</ele>
        <time>2016-03-23T12:37:13Z</time>
      </trkpt>
      <trkpt lat="44.83664" lon="-0.50287">
        <ele>12</ele>
        <time>2016-03-23T12:37:20Z</time>
      </trkpt>
      <trkpt lat="44.83656" lon="-0.50283">
        <ele>13</ele>
        <time>2016-03-23T12:37:25Z</time>
      </trkpt>
      <trkpt lat="44.83654" lon="-0.50271">
        <ele>12</ele>
        <time>2016-03-23T12:37:35Z</time>
      </trkpt>
      <trkpt lat="44.83648" lon="-0.50261">
        <ele>13</ele>
        <time>2016-03-23T12:37:43Z</time>
      </trkpt>
      <trkpt lat="44.83651" lon="-0.5025">
        <ele>10</ele>
        <time>2016-03-23T12:37:50Z</time>
      </trkpt>
      <trkpt lat="44.83651" lon="-0.50237">
        <ele>13</ele>
        <time>2016-03-23T12:37:55Z</time>
      </trkpt>
      <trkpt lat="44.83654" lon="-0.50225">
        <ele>15</ele>
        <time>2016-03-23T12:38:01Z</time>
      </trkpt>
      <trkpt lat="44.83658" lon="-0.50215">
        <ele>15</ele>
        <time>2016-03-23T12:38:10Z</time>
      </trkpt>
      <trkpt lat="44.8366" lon="-0.50203">
        <ele>17</ele>
        <time>2016-03-23T12:38:16Z</time>
      </trkpt>
      <trkpt lat="44.83664" lon="-0.50194">
        <ele>17</ele>
        <time>2016-03-23T12:38:22Z</time>
      </trkpt>
      <trkpt lat="44.83663" lon="-0.50183">
        <ele>15</ele>
        <time>2016-03-23T12:38:29Z</time>
      </trkpt>
      <trkpt lat="44.83662" lon="-0.50171">
        <ele>15</ele>
        <time>2016-03-23T12:38:35Z</time>
      </trkpt>
      <trkpt lat="44.83663" lon="-0.50159">
        <ele>13</ele>
        <time>2016-03-23T12:38:42Z</time>
      </trkpt>
      <trkpt lat="44.83662" lon="-0.50148">
        <ele>13</ele>
        <time>2016-03-23T12:38:48Z</time>
      </trkpt>
      <trkpt lat="44.8366" lon="-0.50138">
        <ele>13</ele>
        <time>2016-03-23T12:38:54Z</time>
      </trkpt>
      <trkpt lat="44.83657" lon="-0.50127">
        <ele>13</ele>
        <time>2016-03-23T12:39:01Z</time>
      </trkpt>
      <trkpt lat="44.83651" lon="-0.50119">
        <ele>16</ele>
        <time>2016-03-23T12:39:06Z</time>
      </trkpt>
      <trkpt lat="44.83646" lon="-0.5011">
        <ele>19</ele>
        <time>2016-03-23T12:39:14Z</time>
      </trkpt>
      <trkpt lat="44.8364" lon="-0.50103">
        <ele>20</ele>
        <time>2016-03-23T12:39:21Z</time>
      </trkpt>
      <trkpt lat="44.83632" lon="-0.50099">
        <ele>19</ele>
        <time>2016-03-23T12:39:28Z</time>
      </trkpt>
      <trkpt lat="44.83624" lon="-0.50096">
        <ele>20</ele>
        <time>2016-03-23T12:39:34Z</time>
      </trkpt>
      <trkpt lat="44.83616" lon="-0.50097">
        <ele>20</ele>
        <time>2016-03-23T12:39:40Z</time>
      </trkpt>
      <trkpt lat="44.83608" lon="-0.50099">
        <ele>20</ele>
        <time>2016-03-23T12:39:46Z</time>
      </trkpt>
      <trkpt lat="44.836" lon="-0.50104">
        <ele>20</ele>
        <time>2016-03-23T12:39:52Z</time>
      </trkpt>
      <trkpt lat="44.83593" lon="-0.50108">
        <ele>19</ele>
        <time>2016-03-23T12:39:59Z</time>
      </trkpt>
      <trkpt lat="44.83586" lon="-0.50114">
        <ele>19</ele>
        <time>2016-03-23T12:40:06Z</time>
      </trkpt>
      <trkpt lat="44.83579" lon="-0.50121">
        <ele>17</ele>
        <time>2016-03-23T12:40:13Z</time>
      </trkpt>
      <trkpt lat="44.83572" lon="-0.50126">
        <ele>17</ele>
        <time>2016-03-23T12:40:19Z</time>
      </trkpt>
      <trkpt lat="44.83565" lon="-0.50132">
        <ele>17</ele>
        <time>2016-03-23T12:40:25Z</time>
      </trkpt>
      <trkpt lat="44.83559" lon="-0.5014">
        <ele>16</ele>
        <time>2016-03-23T12:40:33Z</time>
      </trkpt>
      <trkpt lat="44.83553" lon="-0.50147">
        <ele>14</ele>
        <time>2016-03-23T12:40:40Z</time>
      </trkpt>
      <trkpt lat="44.83547" lon="-0.50155">
        <ele>14</ele>
        <time>2016-03-23T12:40:48Z</time>
      </trkpt>
      <trkpt lat="44.83541" lon="-0.50164">
        <ele>13</ele>
        <time>2016-03-23T12:40:56Z</time>
      </trkpt>
      <trkpt lat="44.83538" lon="-0.50175">
        <ele>11</ele>
        <time>2016-03-23T12:41:04Z</time>
      </trkpt>
      <trkpt lat="44.83533" lon="-0.50185">
        <ele>11</ele>
        <time>2016-03-23T12:41:09Z</time>
      </trkpt>
      <trkpt lat="44.83527" lon="-0.50193">
        <ele>9</ele>
        <time>2016-03-23T12:41:17Z</time>
      </trkpt>
      <trkpt lat="44.8352" lon="-0.50202">
        <ele>9</ele>
        <time>2016-03-23T12:41:26Z</time>
      </trkpt>
      <trkpt lat="44.83514" lon="-0.50208">
        <ele>11</ele>
        <time>2016-03-23T12:41:31Z</time>
      </trkpt>
      <trkpt lat="44.83507" lon="-0.50215">
        <ele>12</ele>
        <time>2016-03-23T12:41:39Z</time>
      </trkpt>
      <trkpt lat="44.83499" lon="-0.5022">
        <ele>10</ele>
        <time>2016-03-23T12:41:53Z</time>
      </trkpt>
      <trkpt lat="44.83492" lon="-0.50227">
        <ele>10</ele>
        <time>2016-03-23T12:42:01Z</time>
      </trkpt>
      <trkpt lat="44.83485" lon="-0.50234">
        <ele>10</ele>
        <time>2016-03-23T12:42:07Z</time>
      </trkpt>
      <trkpt lat="44.83478" lon="-0.50239">
        <ele>9</ele>
        <time>2016-03-23T12:42:13Z</time>
      </trkpt>
      <trkpt lat="44.83471" lon="-0.50246">
        <ele>9</ele>
        <time>2016-03-23T12:42:19Z</time>
      </trkpt>
      <trkpt lat="44.83463" lon="-0.50251">
        <ele>11</ele>
        <time>2016-03-23T12:42:26Z</time>
      </trkpt>
      <trkpt lat="44.83455" lon="-0.50256">
        <ele>11</ele>
        <time>2016-03-23T12:42:32Z</time>
      </trkpt>
      <trkpt lat="44.83447" lon="-0.50262">
        <ele>13</ele>
        <time>2016-03-23T12:42:38Z</time>
      </trkpt>
      <trkpt lat="44.8344" lon="-0.50268">
        <ele>15</ele>
        <time>2016-03-23T12:42:45Z</time>
      </trkpt>
      <trkpt lat="44.83433" lon="-0.50274">
        <ele>18</ele>
        <time>2016-03-23T12:42:52Z</time>
      </trkpt>
      <trkpt lat="44.83426" lon="-0.50281">
        <ele>17</ele>
        <time>2016-03-23T12:42:58Z</time>
      </trkpt>
      <trkpt lat="44.83418" lon="-0.50288">
        <ele>14</ele>
        <time>2016-03-23T12:43:06Z</time>
      </trkpt>
      <trkpt lat="44.83413" lon="-0.50296">
        <ele>12</ele>
        <time>2016-03-23T12:43:14Z</time>
      </trkpt>
      <trkpt lat="44.83406" lon="-0.50303">
        <ele>11</ele>
        <time>2016-03-23T12:43:20Z</time>
      </trkpt>
      <trkpt lat="44.83399" lon="-0.50309">
        <ele>10</ele>
        <time>2016-03-23T12:43:27Z</time>
      </trkpt>
      <trkpt lat="44.83392" lon="-0.50314">
        <ele>11</ele>
        <time>2016-03-23T12:43:33Z</time>
      </trkpt>
      <trkpt lat="44.83385" lon="-0.50321">
        <ele>13</ele>
        <time>2016-03-23T12:43:40Z</time>
      </trkpt>
      <trkpt lat="44.83378" lon="-0.50329">
        <ele>12</ele>
        <time>2016-03-23T12:43:47Z</time>
      </trkpt>
      <trkpt lat="44.83371" lon="-0.50335">
        <ele>12</ele>
        <time>2016-03-23T12:43:54Z</time>
      </trkpt>
      <trkpt lat="44.83364" lon="-0.50341">
        <ele>12</ele>
        <time>2016-03-23T12:43:59Z</time>
      </trkpt>
      <trkpt lat="44.83356" lon="-0.50346">
        <ele>13</ele>
        <time>2016-03-23T12:44:06Z</time>
      </trkpt>
      <trkpt lat="44.83347" lon="-0.50348">
        <ele>15</ele>
        <time>2016-03-23T12:44:13Z</time>
      </trkpt>
      <trkpt lat="44.83338" lon="-0.50351">
        <ele>16</ele>
        <time>2016-03-23T12:44:20Z</time>
      </trkpt>
      <trkpt lat="44.83333" lon="-0.5036">
        <ele>16</ele>
        <time>2016-03-23T12:44:28Z</time>
      </trkpt>
      <trkpt lat="44.83327" lon="-0.5037">
        <ele>15</ele>
        <time>2016-03-23T12:44:36Z</time>
      </trkpt>
      <trkpt lat="44.8332" lon="-0.50376">
        <ele>15</ele>
        <time>2016-03-23T12:44:42Z</time>
      </trkpt>
      <trkpt lat="44.83314" lon="-0.50384">
        <ele>15</ele>
        <time>2016-03-23T12:44:49Z</time>
      </trkpt>
      <trkpt lat="44.83308" lon="-0.50392">
        <ele>15</ele>
        <time>2016-03-23T12:44:55Z</time>
      </trkpt>
      <trkpt lat="44.83301" lon="-0.50401">
        <ele>16</ele>
        <time>2016-03-23T12:45:02Z</time>
      </trkpt>
      <trkpt lat="44.83296" lon="-0.50411">
        <ele>19</ele>
        <time>2016-03-23T12:45:10Z</time>
      </trkpt>
      <trkpt lat="44.83294" lon="-0.50423">
        <ele>19</ele>
        <time>2016-03-23T12:45:18Z</time>
      </trkpt>
      <trkpt lat="44.83291" lon="-0.50435">
        <ele>19</ele>
        <time>2016-03-23T12:45:26Z</time>
      </trkpt>
      <trkpt lat="44.83286" lon="-0.50444">
        <ele>19</ele>
        <time>2016-03-23T12:45:36Z</time>
      </trkpt>
      <trkpt lat="44.83284" lon="-0.50456">
        <ele>16</ele>
        <time>2016-03-23T12:45:43Z</time>
      </trkpt>
      <trkpt lat="44.8328" lon="-0.50466">
        <ele>15</ele>
        <time>2016-03-23T12:45:50Z</time>
      </trkpt>
      <trkpt lat="44.83276" lon="-0.50476">
        <ele>14</ele>
        <time>2016-03-23T12:45:55Z</time>
      </trkpt>
      <trkpt lat="44.83272" lon="-0.50486">
        <ele>14</ele>
        <time>2016-03-23T12:46:01Z</time>
      </trkpt>
      <trkpt lat="44.83267" lon="-0.50497">
        <ele>16</ele>
        <time>2016-03-23T12:46:09Z</time>
      </trkpt>
      <trkpt lat="44.83263" lon="-0.50507">
        <ele>15</ele>
        <time>2016-03-23T12:46:16Z</time>
      </trkpt>
      <trkpt lat="44.83259" lon="-0.50516">
        <ele>14</ele>
        <time>2016-03-23T12:46:23Z</time>
      </trkpt>
      <trkpt lat="44.83254" lon="-0.50526">
        <ele>14</ele>
        <time>2016-03-23T12:46:31Z</time>
      </trkpt>
      <trkpt lat="44.83251" lon="-0.50536">
        <ele>13</ele>
        <time>2016-03-23T12:46:38Z</time>
      </trkpt>
      <trkpt lat="44.8325" lon="-0.50549">
        <ele>15</ele>
        <time>2016-03-23T12:46:49Z</time>
      </trkpt>
      <trkpt lat="44.83254" lon="-0.50557">
        <ele>16</ele>
        <time>2016-03-23T12:46:59Z</time>
      </trkpt>
      <trkpt lat="44.8326" lon="-0.50565">
        <ele>17</ele>
        <time>2016-03-23T12:47:05Z</time>
      </trkpt>
      <trkpt lat="44.83268" lon="-0.50569">
        <ele>16</ele>
        <time>2016-03-23T12:47:11Z</time>
      </trkpt>
      <trkpt lat="44.83275" lon="-0.50574">
        <ele>16</ele>
        <time>2016-03-23T12:47:18Z</time>
      </trkpt>
      <trkpt lat="44.83278" lon="-0.50584">
        <ele>12</ele>
        <time>2016-03-23T12:47:24Z</time>
      </trkpt>
      <trkpt lat="44.83284" lon="-0.50592">
        <ele>12</ele>
        <time>2016-03-23T12:47:30Z</time>
      </trkpt>
      <trkpt lat="44.83289" lon="-0.50602">
        <ele>12</ele>
        <time>2016-03-23T12:47:36Z</time>
      </trkpt>
      <trkpt lat="44.83295" lon="-0.50611">
        <ele>12</ele>
        <time>2016-03-23T12:47:43Z</time>
      </trkpt>
      <trkpt lat="44.833" lon="-0.50619">
        <ele>12</ele>
        <time>2016-03-23T12:47:51Z</time>
      </trkpt>
      <trkpt lat="44.83306" lon="-0.50627">
        <ele>11</ele>
        <time>2016-03-23T12:48:01Z</time>
      </trkpt>
      <trkpt lat="44.83312" lon="-0.50636">
        <ele>11</ele>
        <time>2016-03-23T12:48:07Z</time>
      </trkpt>
      <trkpt lat="44.83316" lon="-0.50647">
        <ele>12</ele>
        <time>2016-03-23T12:48:12Z</time>
      </trkpt>
      <trkpt lat="44.8332" lon="-0.50657">
        <ele>11</ele>
        <time>2016-03-23T12:48:21Z</time>
      </trkpt>
      <trkpt lat="44.83326" lon="-0.50666">
        <ele>7</ele>
        <time>2016-03-23T12:48:28Z</time>
      </trkpt>
      <trkpt lat="44.83334" lon="-0.50672">
        <ele>6</ele>
        <time>2016-03-23T12:48:37Z</time>
      </trkpt>
      <trkpt lat="44.83339" lon="-0.5068">
        <ele>6</ele>
        <time>2016-03-23T12:48:46Z</time>
      </trkpt>
      <trkpt lat="44.83342" lon="-0.50692">
        <ele>6</ele>
        <time>2016-03-23T12:48:51Z</time>
      </trkpt>
      <trkpt lat="44.83345" lon="-0.50704">
        <ele>8</ele>
        <time>2016-03-23T12:48:57Z</time>
      </trkpt>
      <trkpt lat="44.83349" lon="-0.50715">
        <ele>9</ele>
        <time>2016-03-23T12:49:04Z</time>
      </trkpt>
      <trkpt lat="44.83353" lon="-0.50725">
        <ele>11</ele>
        <time>2016-03-23T12:49:10Z</time>
      </trkpt>
      <trkpt lat="44.83359" lon="-0.50734">
        <ele>9</ele>
        <time>2016-03-23T12:49:18Z</time>
      </trkpt>
      <trkpt lat="44.83364" lon="-0.50741">
        <ele>8</ele>
        <time>2016-03-23T12:49:24Z</time>
      </trkpt>
      <trkpt lat="44.83369" lon="-0.50752">
        <ele>9</ele>
        <time>2016-03-23T12:49:31Z</time>
      </trkpt>
      <trkpt lat="44.83372" lon="-0.50763">
        <ele>9</ele>
        <time>2016-03-23T12:49:41Z</time>
      </trkpt>
      <trkpt lat="44.8338" lon="-0.50764">
        <ele>7</ele>
        <time>2016-03-23T12:50:03Z</time>
      </trkpt>
      <trkpt lat="44.83388" lon="-0.50769">
        <ele>13</ele>
        <time>2016-03-23T12:50:20Z</time>
      </trkpt>
      <trkpt lat="44.83396" lon="-0.50767">
        <ele>14</ele>
        <time>2016-03-23T12:50:31Z</time>
      </trkpt>
      <trkpt lat="44.83403" lon="-0.50767">
        <ele>14</ele>
        <time>2016-03-23T12:50:41Z</time>
      </trkpt>
      <trkpt lat="44.83407" lon="-0.50768">
        <ele>14</ele>
        <time>2016-03-23T12:51:08Z</time>
      </trkpt>
      <trkpt lat="44.83417" lon="-0.50766">
        <ele>20</ele>
        <time>2016-03-23T12:51:12Z</time>
      </trkpt>
      <trkpt lat="44.83425" lon="-0.50767">
        <ele>20</ele>
        <time>2016-03-23T12:51:19Z</time>
      </trkpt>
      <trkpt lat="44.83434" lon="-0.50766">
        <ele>19</ele>
        <time>2016-03-23T12:51:26Z</time>
      </trkpt>
      <trkpt lat="44.83442" lon="-0.50765">
        <ele>18</ele>
        <time>2016-03-23T12:51:33Z</time>
      </trkpt>
      <trkpt lat="44.8345" lon="-0.50765">
        <ele>17</ele>
        <time>2016-03-23T12:51:40Z</time>
      </trkpt>
      <trkpt lat="44.83458" lon="-0.50764">
        <ele>17</ele>
        <time>2016-03-23T12:51:46Z</time>
      </trkpt>
      <trkpt lat="44.83466" lon="-0.50763">
        <ele>18</ele>
        <time>2016-03-23T12:51:54Z</time>
      </trkpt>
      <trkpt lat="44.83475" lon="-0.50762">
        <ele>17</ele>
        <time>2016-03-23T12:52:03Z</time>
      </trkpt>
      <trkpt lat="44.83483" lon="-0.50758">
        <ele>16</ele>
        <time>2016-03-23T12:52:10Z</time>
      </trkpt>
      <trkpt lat="44.83492" lon="-0.50759">
        <ele>17</ele>
        <time>2016-03-23T12:52:18Z</time>
      </trkpt>
      <trkpt lat="44.835" lon="-0.50761">
        <ele>16</ele>
        <time>2016-03-23T12:52:27Z</time>
      </trkpt>
      <trkpt lat="44.83509" lon="-0.50764">
        <ele>16</ele>
        <time>2016-03-23T12:52:37Z</time>
      </trkpt>
      <trkpt lat="44.83517" lon="-0.50768">
        <ele>17</ele>
        <time>2016-03-23T12:52:46Z</time>
      </trkpt>
      <trkpt lat="44.83519" lon="-0.5078">
        <ele>13</ele>
        <time>2016-03-23T12:52:55Z</time>
      </trkpt>
      <trkpt lat="44.83521" lon="-0.5079">
        <ele>11</ele>
        <time>2016-03-23T12:53:01Z</time>
      </trkpt>
      <trkpt lat="44.83523" lon="-0.50801">
        <ele>8</ele>
        <time>2016-03-23T12:53:07Z</time>
      </trkpt>
      <trkpt lat="44.83524" lon="-0.50812">
        <ele>5</ele>
        <time>2016-03-23T12:53:11Z</time>
      </trkpt>
      <trkpt lat="44.83525" lon="-0.50825">
        <ele>5</ele>
        <time>2016-03-23T12:53:17Z</time>
      </trkpt>
      <trkpt lat="44.83525" lon="-0.50836">
        <ele>5</ele>
        <time>2016-03-23T12:53:22Z</time>
      </trkpt>
      <trkpt lat="44.83527" lon="-0.50847">
        <ele>7</ele>
        <time>2016-03-23T12:53:29Z</time>
      </trkpt>
      <trkpt lat="44.83529" lon="-0.50859">
        <ele>8</ele>
        <time>2016-03-23T12:53:36Z</time>
      </trkpt>
      <trkpt lat="44.83526" lon="-0.5087">
        <ele>8</ele>
        <time>2016-03-23T12:53:44Z</time>
      </trkpt>
      <trkpt lat="44.8352" lon="-0.5088">
        <ele>6</ele>
        <time>2016-03-23T12:53:54Z</time>
      </trkpt>
      <trkpt lat="44.83515" lon="-0.5089">
        <ele>7</ele>
        <time>2016-03-23T12:54:03Z</time>
      </trkpt>
      <trkpt lat="44.83508" lon="-0.50896">
        <ele>6</ele>
        <time>2016-03-23T12:54:12Z</time>
      </trkpt>
      <trkpt lat="44.835" lon="-0.50902">
        <ele>7</ele>
        <time>2016-03-23T12:54:17Z</time>
      </trkpt>
      <trkpt lat="44.83493" lon="-0.50907">
        <ele>5</ele>
        <time>2016-03-23T12:54:25Z</time>
      </trkpt>
      <trkpt lat="44.83487" lon="-0.50915">
        <ele>4</ele>
        <time>2016-03-23T12:54:32Z</time>
      </trkpt>
      <trkpt lat="44.83479" lon="-0.50919">
        <ele>3</ele>
        <time>2016-03-23T12:54:41Z</time>
      </trkpt>
      <trkpt lat="44.83471" lon="-0.50919">
        <ele>3</ele>
        <time>2016-03-23T12:54:47Z</time>
      </trkpt>
      <trkpt lat="44.83464" lon="-0.50926">
        <ele>3</ele>
        <time>2016-03-23T12:54:54Z</time>
      </trkpt>
      <trkpt lat="44.83456" lon="-0.50932">
        <ele>1</ele>
        <time>2016-03-23T12:55:03Z</time>
      </trkpt>
      <trkpt lat="44.83448" lon="-0.50936">
        <ele>-2</ele>
        <time>2016-03-23T12:55:10Z</time>
      </trkpt>
      <trkpt lat="44.8344" lon="-0.50938">
        <ele>-3</ele>
        <time>2016-03-23T12:55:17Z</time>
      </trkpt>
      <trkpt lat="44.83432" lon="-0.50943">
        <ele>-10</ele>
        <time>2016-03-23T12:55:26Z</time>
      </trkpt>
      <trkpt lat="44.83425" lon="-0.50949">
        <ele>-13</ele>
        <time>2016-03-23T12:55:33Z</time>
      </trkpt>
      <trkpt lat="44.83418" lon="-0.50955">
        <ele>-12</ele>
        <time>2016-03-23T12:55:39Z</time>
      </trkpt>
      <trkpt lat="44.83409" lon="-0.50959">
        <ele>-17</ele>
        <time>2016-03-23T12:55:51Z</time>
      </trkpt>
      <trkpt lat="44.83401" lon="-0.50961">
        <ele>-16</ele>
        <time>2016-03-23T12:55:57Z</time>
      </trkpt>
      <trkpt lat="44.83394" lon="-0.5096">
        <ele>-15</ele>
        <time>2016-03-23T12:56:02Z</time>
      </trkpt>
      <trkpt lat="44.83386" lon="-0.5096">
        <ele>-12</ele>
        <time>2016-03-23T12:56:07Z</time>
      </trkpt>
      <trkpt lat="44.83377" lon="-0.50961">
        <ele>-9</ele>
        <time>2016-03-23T12:56:12Z</time>
      </trkpt>
      <trkpt lat="44.83368" lon="-0.5096">
        <ele>-9</ele>
        <time>2016-03-23T12:56:19Z</time>
      </trkpt>
      <trkpt lat="44.83359" lon="-0.50958">
        <ele>-15</ele>
        <time>2016-03-23T12:56:33Z</time>
      </trkpt>
      <trkpt lat="44.83351" lon="-0.50957">
        <ele>-19</ele>
        <time>2016-03-23T12:56:42Z</time>
      </trkpt>
      <trkpt lat="44.83342" lon="-0.50953">
        <ele>-26</ele>
        <time>2016-03-23T12:56:54Z</time>
      </trkpt>
      <trkpt lat="44.83332" lon="-0.50954">
        <ele>-20</ele>
        <time>2016-03-23T12:56:58Z</time>
      </trkpt>
      <trkpt lat="44.83323" lon="-0.50955">
        <ele>-18</ele>
        <time>2016-03-23T12:57:02Z</time>
      </trkpt>
      <trkpt lat="44.83314" lon="-0.50953">
        <ele>-16</ele>
        <time>2016-03-23T12:57:08Z</time>
      </trkpt>
      <trkpt lat="44.83305" lon="-0.50954">
        <ele>-21</ele>
        <time>2016-03-23T12:57:18Z</time>
      </trkpt>
      <trkpt lat="44.83297" lon="-0.50954">
        <ele>-21</ele>
        <time>2016-03-23T12:57:23Z</time>
      </trkpt>
      <trkpt lat="44.83289" lon="-0.50954">
        <ele>-22</ele>
        <time>2016-03-23T12:57:31Z</time>
      </trkpt>
      <trkpt lat="44.83281" lon="-0.50957">
        <ele>-23</ele>
        <time>2016-03-23T12:57:39Z</time>
      </trkpt>
      <trkpt lat="44.83273" lon="-0.50961">
        <ele>-21</ele>
        <time>2016-03-23T12:57:45Z</time>
      </trkpt>
      <trkpt lat="44.83264" lon="-0.50962">
        <ele>-17</ele>
        <time>2016-03-23T12:57:54Z</time>
      </trkpt>
      <trkpt lat="44.83256" lon="-0.5097">
        <ele>-11</ele>
        <time>2016-03-23T12:57:58Z</time>
      </trkpt>
      <trkpt lat="44.83249" lon="-0.50977">
        <ele>-8</ele>
        <time>2016-03-23T12:58:03Z</time>
      </trkpt>
      <trkpt lat="44.83241" lon="-0.5098">
        <ele>-6</ele>
        <time>2016-03-23T12:58:08Z</time>
      </trkpt>
      <trkpt lat="44.83234" lon="-0.50982">
        <ele>-5</ele>
        <time>2016-03-23T12:58:13Z</time>
      </trkpt>
      <trkpt lat="44.83225" lon="-0.50982">
        <ele>-6</ele>
        <time>2016-03-23T12:58:20Z</time>
      </trkpt>
      <trkpt lat="44.83217" lon="-0.50986">
        <ele>-5</ele>
        <time>2016-03-23T12:58:26Z</time>
      </trkpt>
      <trkpt lat="44.83208" lon="-0.50987">
        <ele>-6</ele>
        <time>2016-03-23T12:58:35Z</time>
      </trkpt>
      <trkpt lat="44.832" lon="-0.5099">
        <ele>-5</ele>
        <time>2016-03-23T12:58:43Z</time>
      </trkpt>
      <trkpt lat="44.8319" lon="-0.50991">
        <ele>-3</ele>
        <time>2016-03-23T12:58:47Z</time>
      </trkpt>
      <trkpt lat="44.83181" lon="-0.50991">
        <ele>-5</ele>
        <time>2016-03-23T12:58:54Z</time>
      </trkpt>
      <trkpt lat="44.83173" lon="-0.50992">
        <ele>-9</ele>
        <time>2016-03-23T12:59:02Z</time>
      </trkpt>
      <trkpt lat="44.83164" lon="-0.50992">
        <ele>-11</ele>
        <time>2016-03-23T12:59:11Z</time>
      </trkpt>
      <trkpt lat="44.83156" lon="-0.50995">
        <ele>-7</ele>
        <time>2016-03-23T12:59:15Z</time>
      </trkpt>
      <trkpt lat="44.83148" lon="-0.50997">
        <ele>-3</ele>
        <time>2016-03-23T12:59:20Z</time>
      </trkpt>
      <trkpt lat="44.8314" lon="-0.51">
        <ele>-7</ele>
        <time>2016-03-23T12:59:29Z</time>
      </trkpt>
      <trkpt lat="44.83132" lon="-0.51001">
        <ele>-11</ele>
        <time>2016-03-23T12:59:38Z</time>
      </trkpt>
      <trkpt lat="44.83124" lon="-0.51001">
        <ele>-13</ele>
        <time>2016-03-23T12:59:47Z</time>
      </trkpt>
      <trkpt lat="44.83115" lon="-0.51">
        <ele>-12</ele>
        <time>2016-03-23T12:59:54Z</time>
      </trkpt>
      <trkpt lat="44.83107" lon="-0.50999">
        <ele>-13</ele>
        <time>2016-03-23T13:00:01Z</time>
      </trkpt>
      <trkpt lat="44.83099" lon="-0.50999">
        <ele>-14</ele>
        <time>2016-03-23T13:00:10Z</time>
      </trkpt>
      <trkpt lat="44.83091" lon="-0.51002">
        <ele>-16</ele>
        <time>2016-03-23T13:00:20Z</time>
      </trkpt>
      <trkpt lat="44.83083" lon="-0.51002">
        <ele>-22</ele>
        <time>2016-03-23T13:00:30Z</time>
      </trkpt>
      <trkpt lat="44.83075" lon="-0.51006">
        <ele>-26</ele>
        <time>2016-03-23T13:00:39Z</time>
      </trkpt>
      <trkpt lat="44.83067" lon="-0.51006">
        <ele>-27</ele>
        <time>2016-03-23T13:00:48Z</time>
      </trkpt>
      <trkpt lat="44.83059" lon="-0.51007">
        <ele>-25</ele>
        <time>2016-03-23T13:00:52Z</time>
      </trkpt>
      <trkpt lat="44.83052" lon="-0.51004">
        <ele>-23</ele>
        <time>2016-03-23T13:00:56Z</time>
      </trkpt>
      <trkpt lat="44.83045" lon="-0.50998">
        <ele>-23</ele>
        <time>2016-03-23T13:01:02Z</time>
      </trkpt>
      <trkpt lat="44.83036" lon="-0.51">
        <ele>-20</ele>
        <time>2016-03-23T13:01:09Z</time>
      </trkpt>
      <trkpt lat="44.83027" lon="-0.51001">
        <ele>-21</ele>
        <time>2016-03-23T13:01:16Z</time>
      </trkpt>
      <trkpt lat="44.83019" lon="-0.51004">
        <ele>-25</ele>
        <time>2016-03-23T13:01:25Z</time>
      </trkpt>
      <trkpt lat="44.83012" lon="-0.51009">
        <ele>-26</ele>
        <time>2016-03-23T13:01:31Z</time>
      </trkpt>
      <trkpt lat="44.83005" lon="-0.51012">
        <ele>-26</ele>
        <time>2016-03-23T13:01:37Z</time>
      </trkpt>
      <trkpt lat="44.82996" lon="-0.51016">
        <ele>-28</ele>
        <time>2016-03-23T13:01:46Z</time>
      </trkpt>
      <trkpt lat="44.82988" lon="-0.5102">
        <ele>-30</ele>
        <time>2016-03-23T13:01:53Z</time>
      </trkpt>
      <trkpt lat="44.82979" lon="-0.51018">
        <ele>-28</ele>
        <time>2016-03-23T13:01:58Z</time>
      </trkpt>
      <trkpt lat="44.82972" lon="-0.51017">
        <ele>-30</ele>
        <time>2016-03-23T13:02:05Z</time>
      </trkpt>
      <trkpt lat="44.82964" lon="-0.51021">
        <ele>-28</ele>
        <time>2016-03-23T13:02:10Z</time>
      </trkpt>
      <trkpt lat="44.82956" lon="-0.51023">
        <ele>-33</ele>
        <time>2016-03-23T13:02:19Z</time>
      </trkpt>
      <trkpt lat="44.82948" lon="-0.51027">
        <ele>-34</ele>
        <time>2016-03-23T13:02:30Z</time>
      </trkpt>
      <trkpt lat="44.82941" lon="-0.5102">
        <ele>-38</ele>
        <time>2016-03-23T13:02:39Z</time>
      </trkpt>
      <trkpt lat="44.82933" lon="-0.51019">
        <ele>-41</ele>
        <time>2016-03-23T13:02:45Z</time>
      </trkpt>
      <trkpt lat="44.82928" lon="-0.51019">
        <ele>-45</ele>
        <time>2016-03-23T13:03:05Z</time>
      </trkpt>
      <trkpt lat="44.82918" lon="-0.51012">
        <ele>-54</ele>
        <time>2016-03-23T13:03:09Z</time>
      </trkpt>
      <trkpt lat="44.8291" lon="-0.51008">
        <ele>-54</ele>
        <time>2016-03-23T13:03:18Z</time>
      </trkpt>
      <trkpt lat="44.82903" lon="-0.51005">
        <ele>-50</ele>
        <time>2016-03-23T13:03:23Z</time>
      </trkpt>
      <trkpt lat="44.82894" lon="-0.51002">
        <ele>-45</ele>
        <time>2016-03-23T13:03:30Z</time>
      </trkpt>
      <trkpt lat="44.82888" lon="-0.50995">
        <ele>-46</ele>
        <time>2016-03-23T13:03:42Z</time>
      </trkpt>
      <trkpt lat="44.82881" lon="-0.50993">
        <ele>-46</ele>
        <time>2016-03-23T13:03:47Z</time>
      </trkpt>
      <trkpt lat="44.82874" lon="-0.50986">
        <ele>-47</ele>
        <time>2016-03-23T13:03:53Z</time>
      </trkpt>
      <trkpt lat="44.82858" lon="-0.50979">
        <ele>-40</ele>
        <time>2016-03-23T13:03:57Z</time>
      </trkpt>
      <trkpt lat="44.82848" lon="-0.50972">
        <ele>-36</ele>
        <time>2016-03-23T13:04:01Z</time>
      </trkpt>
      <trkpt lat="44.82843" lon="-0.50962">
        <ele>-37</ele>
        <time>2016-03-23T13:04:11Z</time>
      </trkpt>
      <trkpt lat="44.82838" lon="-0.50954">
        <ele>-36</ele>
        <time>2016-03-23T13:04:16Z</time>
      </trkpt>
      <trkpt lat="44.82834" lon="-0.50945">
        <ele>-35</ele>
        <time>2016-03-23T13:04:21Z</time>
      </trkpt>
      <trkpt lat="44.82829" lon="-0.50935">
        <ele>-34</ele>
        <time>2016-03-23T13:04:27Z</time>
      </trkpt>
      <trkpt lat="44.82826" lon="-0.50924">
        <ele>-33</ele>
        <time>2016-03-23T13:04:33Z</time>
      </trkpt>
      <trkpt lat="44.82822" lon="-0.50913">
        <ele>-31</ele>
        <time>2016-03-23T13:04:39Z</time>
      </trkpt>
      <trkpt lat="44.82818" lon="-0.50903">
        <ele>-31</ele>
        <time>2016-03-23T13:04:45Z</time>
      </trkpt>
      <trkpt lat="44.82816" lon="-0.50892">
        <ele>-29</ele>
        <time>2016-03-23T13:04:52Z</time>
      </trkpt>
      <trkpt lat="44.82815" lon="-0.5088">
        <ele>-33</ele>
        <time>2016-03-23T13:05:01Z</time>
      </trkpt>
      <trkpt lat="44.82817" lon="-0.50868">
        <ele>-35</ele>
        <time>2016-03-23T13:05:10Z</time>
      </trkpt>
      <trkpt lat="44.82814" lon="-0.50856">
        <ele>-35</ele>
        <time>2016-03-23T13:05:18Z</time>
      </trkpt>
      <trkpt lat="44.82814" lon="-0.50844">
        <ele>-34</ele>
        <time>2016-03-23T13:05:26Z</time>
      </trkpt>
      <trkpt lat="44.82814" lon="-0.50833">
        <ele>-35</ele>
        <time>2016-03-23T13:05:36Z</time>
      </trkpt>
      <trkpt lat="44.82812" lon="-0.50822">
        <ele>-34</ele>
        <time>2016-03-23T13:05:42Z</time>
      </trkpt>
      <trkpt lat="44.82809" lon="-0.5081">
        <ele>-34</ele>
        <time>2016-03-23T13:05:47Z</time>
      </trkpt>
      <trkpt lat="44.8281" lon="-0.50798">
        <ele>-36</ele>
        <time>2016-03-23T13:05:57Z</time>
      </trkpt>
      <trkpt lat="44.82813" lon="-0.50787">
        <ele>-34</ele>
        <time>2016-03-23T13:06:06Z</time>
      </trkpt>
      <trkpt lat="44.82816" lon="-0.50776">
        <ele>-34</ele>
        <time>2016-03-23T13:06:13Z</time>
      </trkpt>
      <trkpt lat="44.82819" lon="-0.50766">
        <ele>-35</ele>
        <time>2016-03-23T13:06:21Z</time>
      </trkpt>
      <trkpt lat="44.82821" lon="-0.50754">
        <ele>-37</ele>
        <time>2016-03-23T13:06:31Z</time>
      </trkpt>
      <trkpt lat="44.8282" lon="-0.50742">
        <ele>-38</ele>
        <time>2016-03-23T13:06:41Z</time>
      </trkpt>
      <trkpt lat="44.82821" lon="-0.50738">
        <ele>-40</ele>
        <time>2016-03-23T13:06:57Z</time>
      </trkpt>
      <trkpt lat="44.82812" lon="-0.50725">
        <ele>-49</ele>
        <time>2016-03-23T13:07:01Z</time>
      </trkpt>
      <trkpt lat="44.82811" lon="-0.50712">
        <ele>-49</ele>
        <time>2016-03-23T13:07:06Z</time>
      </trkpt>
      <trkpt lat="44.82814" lon="-0.50699">
        <ele>-47</ele>
        <time>2016-03-23T13:07:10Z</time>
      </trkpt>
      <trkpt lat="44.82816" lon="-0.50688">
        <ele>-45</ele>
        <time>2016-03-23T13:07:14Z</time>
      </trkpt>
      <trkpt lat="44.82819" lon="-0.50679">
        <ele>-43</ele>
        <time>2016-03-23T13:07:18Z</time>
      </trkpt>
      <trkpt lat="44.82822" lon="-0.50668">
        <ele>-43</ele>
        <time>2016-03-23T13:07:24Z</time>
      </trkpt>
      <trkpt lat="44.82825" lon="-0.50658">
        <ele>-42</ele>
        <time>2016-03-23T13:07:29Z</time>
      </trkpt>
      <trkpt lat="44.8283" lon="-0.50647">
        <ele>-40</ele>
        <time>2016-03-23T13:07:37Z</time>
      </trkpt>
      <trkpt lat="44.82836" lon="-0.50639">
        <ele>-39</ele>
        <time>2016-03-23T13:07:44Z</time>
      </trkpt>
      <trkpt lat="44.82842" lon="-0.50631">
        <ele>-40</ele>
        <time>2016-03-23T13:07:51Z</time>
      </trkpt>
      <trkpt lat="44.82849" lon="-0.50625">
        <ele>-42</ele>
        <time>2016-03-23T13:07:58Z</time>
      </trkpt>
      <trkpt lat="44.82856" lon="-0.50618">
        <ele>-45</ele>
        <time>2016-03-23T13:08:05Z</time>
      </trkpt>
      <trkpt lat="44.82862" lon="-0.50611">
        <ele>-46</ele>
        <time>2016-03-23T13:08:13Z</time>
      </trkpt>
      <trkpt lat="44.82868" lon="-0.50603">
        <ele>-46</ele>
        <time>2016-03-23T13:08:19Z</time>
      </trkpt>
      <trkpt lat="44.82874" lon="-0.50594">
        <ele>-46</ele>
        <time>2016-03-23T13:08:26Z</time>
      </trkpt>
      <trkpt lat="44.82877" lon="-0.50583">
        <ele>-46</ele>
        <time>2016-03-23T13:08:33Z</time>
      </trkpt>
      <trkpt lat="44.82885" lon="-0.50579">
        <ele>-40</ele>
        <time>2016-03-23T13:08:44Z</time>
      </trkpt>
      <trkpt lat="44.82894" lon="-0.5058">
        <ele>-39</ele>
        <time>2016-03-23T13:08:53Z</time>
      </trkpt>
      <trkpt lat="44.82901" lon="-0.50573">
        <ele>-40</ele>
        <time>2016-03-23T13:09:03Z</time>
      </trkpt>
      <trkpt lat="44.82904" lon="-0.50562">
        <ele>-35</ele>
        <time>2016-03-23T13:09:11Z</time>
      </trkpt>
      <trkpt lat="44.82905" lon="-0.5055">
        <ele>-33</ele>
        <time>2016-03-23T13:09:20Z</time>
      </trkpt>
      <trkpt lat="44.82913" lon="-0.50547">
        <ele>-26</ele>
        <time>2016-03-23T13:10:16Z</time>
      </trkpt>
      <trkpt lat="44.82917" lon="-0.50559">
        <ele>-18</ele>
        <time>2016-03-23T13:10:26Z</time>
      </trkpt>
      <trkpt lat="44.82924" lon="-0.50562">
        <ele>-14</ele>
        <time>2016-03-23T13:10:33Z</time>
      </trkpt>
      <trkpt lat="44.82932" lon="-0.50566">
        <ele>-11</ele>
        <time>2016-03-23T13:10:40Z</time>
      </trkpt>
      <trkpt lat="44.82938" lon="-0.50573">
        <ele>-8</ele>
        <time>2016-03-23T13:10:50Z</time>
      </trkpt>
      <trkpt lat="44.82938" lon="-0.50585">
        <ele>-5</ele>
        <time>2016-03-23T13:11:09Z</time>
      </trkpt>
      <trkpt lat="44.82947" lon="-0.50587">
        <ele>-1</ele>
        <time>2016-03-23T13:11:37Z</time>
      </trkpt>
      <trkpt lat="44.82955" lon="-0.50586">
        <ele>-4</ele>
        <time>2016-03-23T13:11:45Z</time>
      </trkpt>
      <trkpt lat="44.82964" lon="-0.50583">
        <ele>-6</ele>
        <time>2016-03-23T13:12:35Z</time>
      </trkpt>
      <trkpt lat="44.82972" lon="-0.50584">
        <ele>-2</ele>
        <time>2016-03-23T13:12:44Z</time>
      </trkpt>
      <trkpt lat="44.82981" lon="-0.50586">
        <ele>3</ele>
        <time>2016-03-23T13:12:57Z</time>
      </trkpt>
      <trkpt lat="44.82984" lon="-0.50585">
        <ele>6</ele>
        <time>2016-03-23T13:14:11Z</time>
      </trkpt>
      <trkpt lat="44.82992" lon="-0.50598">
        <ele>-8</ele>
        <time>2016-03-23T13:14:16Z</time>
      </trkpt>
      <trkpt lat="44.82994" lon="-0.5061">
        <ele>-6</ele>
        <time>2016-03-23T13:14:24Z</time>
      </trkpt>
      <trkpt lat="44.82991" lon="-0.50622">
        <ele>-1</ele>
        <time>2016-03-23T13:14:29Z</time>
      </trkpt>
      <trkpt lat="44.82991" lon="-0.50634">
        <ele>-2</ele>
        <time>2016-03-23T13:14:43Z</time>
      </trkpt>
      <trkpt lat="44.82992" lon="-0.50646">
        <ele>55.2</ele>
        <time>2016-03-23T13:14:54Z</time>
      </trkpt>
      <trkpt lat="44.82993" lon="-0.50657">
        <ele>2</ele>
        <time>2016-03-23T13:15:05Z</time>
      </trkpt>
      <trkpt lat="44.82996" lon="-0.50665">
        <ele>2</ele>
        <time>2016-03-23T13:15:57Z</time>
      </trkpt>
      <trkpt lat="44.83006" lon="-0.50657">
        <ele>-7</ele>
        <time>2016-03-23T13:16:01Z</time>
      </trkpt>
      <trkpt lat="44.8301" lon="-0.50646">
        <ele>-8</ele>
        <time>2016-03-23T13:16:10Z</time>
      </trkpt>
      <trkpt lat="44.83013" lon="-0.50635">
        <ele>-9</ele>
        <time>2016-03-23T13:16:22Z</time>
      </trkpt>
      <trkpt lat="44.83017" lon="-0.50624">
        <ele>-4</ele>
        <time>2016-03-23T13:16:28Z</time>
      </trkpt>
      <trkpt lat="44.83021" lon="-0.50614">
        <ele>1</ele>
        <time>2016-03-23T13:16:37Z</time>
      </trkpt>
      <trkpt lat="44.83023" lon="-0.50602">
        <ele>7</ele>
        <time>2016-03-23T13:16:46Z</time>
      </trkpt>
      <trkpt lat="44.83025" lon="-0.5059">
        <ele>6</ele>
        <time>2016-03-23T13:16:52Z</time>
      </trkpt>
      <trkpt lat="44.83026" lon="-0.50577">
        <ele>8</ele>
        <time>2016-03-23T13:16:59Z</time>
      </trkpt>
      <trkpt lat="44.83024" lon="-0.50566">
        <ele>7</ele>
        <time>2016-03-23T13:17:07Z</time>
      </trkpt>
      <trkpt lat="44.83026" lon="-0.50554">
        <ele>9</ele>
        <time>2016-03-23T13:17:16Z</time>
      </trkpt>
      <trkpt lat="44.83025" lon="-0.50548">
        <ele>10</ele>
        <time>2016-03-23T13:18:19Z</time>
      </trkpt>
      <trkpt lat="44.83027" lon="-0.50535">
        <ele>6</ele>
        <time>2016-03-23T13:18:23Z</time>
      </trkpt>
      <trkpt lat="44.83027" lon="-0.50523">
        <ele>61.2</ele>
        <time>2016-03-23T13:18:36Z</time>
      </trkpt>
      <trkpt lat="44.83024" lon="-0.50511">
        <ele>-7</ele>
        <time>2016-03-23T13:18:52Z</time>
      </trkpt>
      <trkpt lat="44.83028" lon="-0.50501">
        <ele>-6</ele>
        <time>2016-03-23T13:19:01Z</time>
      </trkpt>
      <trkpt lat="44.83031" lon="-0.50489">
        <ele>63.4</ele>
        <time>2016-03-23T13:19:08Z</time>
      </trkpt>
      <trkpt lat="44.83036" lon="-0.50481">
        <ele>1</ele>
        <time>2016-03-23T13:19:16Z</time>
      </trkpt>
      <trkpt lat="44.83044" lon="-0.50477">
        <ele>10</ele>
        <time>2016-03-23T13:19:24Z</time>
      </trkpt>
      <trkpt lat="44.83052" lon="-0.50472">
        <ele>13</ele>
        <time>2016-03-23T13:19:41Z</time>
      </trkpt>
      <trkpt lat="44.83057" lon="-0.50471">
        <ele>11</ele>
        <time>2016-03-23T13:19:57Z</time>
      </trkpt>
      <trkpt lat="44.83064" lon="-0.50473">
        <ele>8</ele>
        <time>2016-03-23T13:20:01Z</time>
      </trkpt>
      <trkpt lat="44.83072" lon="-0.50477">
        <ele>6</ele>
        <time>2016-03-23T13:20:22Z</time>
      </trkpt>
      <trkpt lat="44.83079" lon="-0.50474">
        <ele>8</ele>
        <time>2016-03-23T13:20:44Z</time>
      </trkpt>
      <trkpt lat="44.83087" lon="-0.50473">
        <ele>8</ele>
        <time>2016-03-23T13:20:49Z</time>
      </trkpt>
      <trkpt lat="44.83092" lon="-0.50473">
        <ele>12</ele>
        <time>2016-03-23T13:21:40Z</time>
      </trkpt>
      <trkpt lat="44.83101" lon="-0.50467">
        <ele>14</ele>
        <time>2016-03-23T13:21:44Z</time>
      </trkpt>
      <trkpt lat="44.83101" lon="-0.50467">
        <ele>14</ele>
        <time>2016-03-23T13:22:19Z</time>
      </trkpt>
      <trkpt lat="44.83109" lon="-0.50475">
        <ele>17</ele>
        <time>2016-03-23T13:22:23Z</time>
      </trkpt>
      <trkpt lat="44.83114" lon="-0.50464">
        <ele>9</ele>
        <time>2016-03-23T13:23:18Z</time>
      </trkpt>
      <trkpt lat="44.83121" lon="-0.50458">
        <ele>10</ele>
        <time>2016-03-23T13:23:25Z</time>
      </trkpt>
      <trkpt lat="44.83129" lon="-0.50452">
        <ele>8</ele>
        <time>2016-03-23T13:23:34Z</time>
      </trkpt>
      <trkpt lat="44.83136" lon="-0.50445">
        <ele>5</ele>
        <time>2016-03-23T13:23:43Z</time>
      </trkpt>
      <trkpt lat="44.83144" lon="-0.50441">
        <ele>5</ele>
        <time>2016-03-23T13:23:50Z</time>
      </trkpt>
      <trkpt lat="44.83152" lon="-0.50437">
        <ele>8</ele>
        <time>2016-03-23T13:23:58Z</time>
      </trkpt>
      <trkpt lat="44.83159" lon="-0.50432">
        <ele>9</ele>
        <time>2016-03-23T13:24:06Z</time>
      </trkpt>
      <trkpt lat="44.83166" lon="-0.50426">
        <ele>10</ele>
        <time>2016-03-23T13:24:14Z</time>
      </trkpt>
      <trkpt lat="44.83174" lon="-0.50421">
        <ele>11</ele>
        <time>2016-03-23T13:24:22Z</time>
      </trkpt>
      <trkpt lat="44.83182" lon="-0.50415">
        <ele>11</ele>
        <time>2016-03-23T13:24:32Z</time>
      </trkpt>
      <trkpt lat="44.83188" lon="-0.50408">
        <ele>8</ele>
        <time>2016-03-23T13:24:40Z</time>
      </trkpt>
      <trkpt lat="44.83196" lon="-0.50406">
        <ele>7</ele>
        <time>2016-03-23T13:24:47Z</time>
      </trkpt>
      <trkpt lat="44.83204" lon="-0.50406">
        <ele>8</ele>
        <time>2016-03-23T13:24:57Z</time>
      </trkpt>
      <trkpt lat="44.83211" lon="-0.50415">
        <ele>12</ele>
        <time>2016-03-23T13:25:07Z</time>
      </trkpt>
      <trkpt lat="44.83215" lon="-0.50425">
        <ele>12</ele>
        <time>2016-03-23T13:25:18Z</time>
      </trkpt>
      <trkpt lat="44.83219" lon="-0.50436">
        <ele>14</ele>
        <time>2016-03-23T13:25:26Z</time>
      </trkpt>
      <trkpt lat="44.83222" lon="-0.50448">
        <ele>16</ele>
        <time>2016-03-23T13:25:36Z</time>
      </trkpt>
      <trkpt lat="44.8323" lon="-0.50449">
        <ele>18</ele>
        <time>2016-03-23T13:25:52Z</time>
      </trkpt>
      <trkpt lat="44.83239" lon="-0.50447">
        <ele>18</ele>
        <time>2016-03-23T13:26:01Z</time>
      </trkpt>
      <trkpt lat="44.83247" lon="-0.50447">
        <ele>19</ele>
        <time>2016-03-23T13:26:12Z</time>
      </trkpt>
      <trkpt lat="44.83254" lon="-0.50441">
        <ele>17</ele>
        <time>2016-03-23T13:26:24Z</time>
      </trkpt>
      <trkpt lat="44.83262" lon="-0.50439">
        <ele>16</ele>
        <time>2016-03-23T13:26:31Z</time>
      </trkpt>
      <trkpt lat="44.83271" lon="-0.50441">
        <ele>17</ele>
        <time>2016-03-23T13:26:38Z</time>
      </trkpt>
      <trkpt lat="44.83279" lon="-0.50444">
        <ele>16</ele>
        <time>2016-03-23T13:26:45Z</time>
      </trkpt>
      <trkpt lat="44.83287" lon="-0.50441">
        <ele>13</ele>
        <time>2016-03-23T13:26:54Z</time>
      </trkpt>
      <trkpt lat="44.83291" lon="-0.50429">
        <ele>13</ele>
        <time>2016-03-23T13:27:01Z</time>
      </trkpt>
      <trkpt lat="44.83294" lon="-0.50418">
        <ele>10</ele>
        <time>2016-03-23T13:27:10Z</time>
      </trkpt>
      <trkpt lat="44.83299" lon="-0.50408">
        <ele>10</ele>
        <time>2016-03-23T13:27:17Z</time>
      </trkpt>
      <trkpt lat="44.83303" lon="-0.50398">
        <ele>7</ele>
        <time>2016-03-23T13:27:23Z</time>
      </trkpt>
      <trkpt lat="44.83309" lon="-0.5039">
        <ele>7</ele>
        <time>2016-03-23T13:27:31Z</time>
      </trkpt>
      <trkpt lat="44.83314" lon="-0.5038">
        <ele>5</ele>
        <time>2016-03-23T13:27:38Z</time>
      </trkpt>
      <trkpt lat="44.83319" lon="-0.50371">
        <ele>7</ele>
        <time>2016-03-23T13:27:44Z</time>
      </trkpt>
      <trkpt lat="44.83324" lon="-0.50362">
        <ele>9</ele>
        <time>2016-03-23T13:27:53Z</time>
      </trkpt>
      <trkpt lat="44.83329" lon="-0.50352">
        <ele>6</ele>
        <time>2016-03-23T13:28:03Z</time>
      </trkpt>
      <trkpt lat="44.83335" lon="-0.50346">
        <ele>6</ele>
        <time>2016-03-23T13:28:11Z</time>
      </trkpt>
      <trkpt lat="44.83343" lon="-0.50342">
        <ele>3</ele>
        <time>2016-03-23T13:28:18Z</time>
      </trkpt>
      <trkpt lat="44.83351" lon="-0.50339">
        <ele>1</ele>
        <time>2016-03-23T13:28:25Z</time>
      </trkpt>
      <trkpt lat="44.8336" lon="-0.50338">
        <ele>1</ele>
        <time>2016-03-23T13:28:30Z</time>
      </trkpt>
      <trkpt lat="44.83368" lon="-0.50335">
        <ele>68.5</ele>
        <time>2016-03-23T13:28:36Z</time>
      </trkpt>
      <trkpt lat="44.83376" lon="-0.50334">
        <ele>69.1</ele>
        <time>2016-03-23T13:28:41Z</time>
      </trkpt>
      <trkpt lat="44.83383" lon="-0.50331">
        <ele>69.3</ele>
        <time>2016-03-23T13:28:47Z</time>
      </trkpt>
      <trkpt lat="44.83391" lon="-0.50324">
        <ele>1</ele>
        <time>2016-03-23T13:28:55Z</time>
      </trkpt>
      <trkpt lat="44.83398" lon="-0.50317">
        <ele>3</ele>
        <time>2016-03-23T13:29:03Z</time>
      </trkpt>
      <trkpt lat="44.83405" lon="-0.50311">
        <ele>5</ele>
        <time>2016-03-23T13:29:11Z</time>
      </trkpt>
      <trkpt lat="44.83412" lon="-0.50303">
        <ele>3</ele>
        <time>2016-03-23T13:29:19Z</time>
      </trkpt>
      <trkpt lat="44.83419" lon="-0.50297">
        <ele>2</ele>
        <time>2016-03-23T13:29:25Z</time>
      </trkpt>
      <trkpt lat="44.83426" lon="-0.5029">
        <ele>1</ele>
        <time>2016-03-23T13:29:32Z</time>
      </trkpt>
      <trkpt lat="44.83433" lon="-0.50284">
        <ele>2</ele>
        <time>2016-03-23T13:29:38Z</time>
      </trkpt>
      <trkpt lat="44.83439" lon="-0.50277">
        <ele>3</ele>
        <time>2016-03-23T13:29:45Z</time>
      </trkpt>
      <trkpt lat="44.83446" lon="-0.5027">
        <ele>3</ele>
        <time>2016-03-23T13:29:53Z</time>
      </trkpt>
      <trkpt lat="44.83452" lon="-0.50263">
        <ele>6</ele>
        <time>2016-03-23T13:30:00Z</time>
      </trkpt>
      <trkpt lat="44.83457" lon="-0.50254">
        <ele>6</ele>
        <time>2016-03-23T13:30:07Z</time>
      </trkpt>
      <trkpt lat="44.83463" lon="-0.50246">
        <ele>5</ele>
        <time>2016-03-23T13:30:14Z</time>
      </trkpt>
      <trkpt lat="44.8347" lon="-0.50239">
        <ele>5</ele>
        <time>2016-03-23T13:30:20Z</time>
      </trkpt>
      <trkpt lat="44.83476" lon="-0.50232">
        <ele>6</ele>
        <time>2016-03-23T13:30:27Z</time>
      </trkpt>
      <trkpt lat="44.83482" lon="-0.50225">
        <ele>8</ele>
        <time>2016-03-23T13:30:34Z</time>
      </trkpt>
      <trkpt lat="44.83488" lon="-0.50217">
        <ele>7</ele>
        <time>2016-03-23T13:30:45Z</time>
      </trkpt>
      <trkpt lat="44.83495" lon="-0.50212">
        <ele>7</ele>
        <time>2016-03-23T13:30:53Z</time>
      </trkpt>
      <trkpt lat="44.83502" lon="-0.50208">
        <ele>6</ele>
        <time>2016-03-23T13:30:59Z</time>
      </trkpt>
      <trkpt lat="44.8351" lon="-0.50202">
        <ele>5</ele>
        <time>2016-03-23T13:31:06Z</time>
      </trkpt>
      <trkpt lat="44.83514" lon="-0.50193">
        <ele>8</ele>
        <time>2016-03-23T13:31:12Z</time>
      </trkpt>
      <trkpt lat="44.83521" lon="-0.50185">
        <ele>11</ele>
        <time>2016-03-23T13:31:20Z</time>
      </trkpt>
      <trkpt lat="44.83529" lon="-0.50184">
        <ele>13</ele>
        <time>2016-03-23T13:31:28Z</time>
      </trkpt>
      <trkpt lat="44.83538" lon="-0.50182">
        <ele>13</ele>
        <time>2016-03-23T13:31:36Z</time>
      </trkpt>
      <trkpt lat="44.83545" lon="-0.50175">
        <ele>12</ele>
        <time>2016-03-23T13:31:43Z</time>
      </trkpt>
      <trkpt lat="44.83551" lon="-0.5017">
        <ele>15</ele>
        <time>2016-03-23T13:31:49Z</time>
      </trkpt>
      <trkpt lat="44.83558" lon="-0.50163">
        <ele>14</ele>
        <time>2016-03-23T13:31:55Z</time>
      </trkpt>
      <trkpt lat="44.83565" lon="-0.50155">
        <ele>15</ele>
        <time>2016-03-23T13:32:01Z</time>
      </trkpt>
      <trkpt lat="44.83571" lon="-0.50147">
        <ele>13</ele>
        <time>2016-03-23T13:32:08Z</time>
      </trkpt>
      <trkpt lat="44.83578" lon="-0.5014">
        <ele>13</ele>
        <time>2016-03-23T13:32:15Z</time>
      </trkpt>
      <trkpt lat="44.83584" lon="-0.50132">
        <ele>13</ele>
        <time>2016-03-23T13:32:23Z</time>
      </trkpt>
      <trkpt lat="44.8359" lon="-0.50124">
        <ele>12</ele>
        <time>2016-03-23T13:32:33Z</time>
      </trkpt>
      <trkpt lat="44.83598" lon="-0.50128">
        <ele>11</ele>
        <time>2016-03-23T13:32:41Z</time>
      </trkpt>
      <trkpt lat="44.83605" lon="-0.50135">
        <ele>11</ele>
        <time>2016-03-23T13:32:48Z</time>
      </trkpt>
      <trkpt lat="44.83611" lon="-0.50142">
        <ele>12</ele>
        <time>2016-03-23T13:32:55Z</time>
      </trkpt>
      <trkpt lat="44.83618" lon="-0.50149">
        <ele>14</ele>
        <time>2016-03-23T13:33:02Z</time>
      </trkpt>
      <trkpt lat="44.83624" lon="-0.50158">
        <ele>13</ele>
        <time>2016-03-23T13:33:09Z</time>
      </trkpt>
      <trkpt lat="44.83631" lon="-0.50166">
        <ele>11</ele>
        <time>2016-03-23T13:33:17Z</time>
      </trkpt>
      <trkpt lat="44.83637" lon="-0.50173">
        <ele>12</ele>
        <time>2016-03-23T13:33:24Z</time>
      </trkpt>
      <trkpt lat="44.83644" lon="-0.50181">
        <ele>12</ele>
        <time>2016-03-23T13:33:32Z</time>
      </trkpt>
      <trkpt lat="44.8365" lon="-0.5019">
        <ele>11</ele>
        <time>2016-03-23T13:33:39Z</time>
      </trkpt>
      <trkpt lat="44.83651" lon="-0.50202">
        <ele>8</ele>
        <time>2016-03-23T13:33:47Z</time>
      </trkpt>
      <trkpt lat="44.8365" lon="-0.50214">
        <ele>7</ele>
        <time>2016-03-23T13:33:54Z</time>
      </trkpt>
      <trkpt lat="44.83648" lon="-0.50226">
        <ele>6</ele>
        <time>2016-03-23T13:34:02Z</time>
      </trkpt>
      <trkpt lat="44.83646" lon="-0.50238">
        <ele>5</ele>
        <time>2016-03-23T13:34:07Z</time>
      </trkpt>
      <trkpt lat="44.83644" lon="-0.50248">
        <ele>5</ele>
        <time>2016-03-23T13:34:13Z</time>
      </trkpt>
      <trkpt lat="44.83641" lon="-0.50258">
        <ele>8</ele>
        <time>2016-03-23T13:34:18Z</time>
      </trkpt>
      <trkpt lat="44.8364" lon="-0.50269">
        <ele>9</ele>
        <time>2016-03-23T13:34:22Z</time>
      </trkpt>
      <trkpt lat="44.83639" lon="-0.50281">
        <ele>9</ele>
        <time>2016-03-23T13:34:29Z</time>
      </trkpt>
      <trkpt lat="44.83639" lon="-0.50293">
        <ele>8</ele>
        <time>2016-03-23T13:34:35Z</time>
      </trkpt>
      <trkpt lat="44.83639" lon="-0.50305">
        <ele>7</ele>
        <time>2016-03-23T13:34:42Z</time>
      </trkpt>
      <trkpt lat="44.83639" lon="-0.50316">
        <ele>8</ele>
        <time>2016-03-23T13:34:50Z</time>
      </trkpt>
      <trkpt lat="44.83638" lon="-0.50327">
        <ele>9</ele>
        <time>2016-03-23T13:34:56Z</time>
      </trkpt>
      <trkpt lat="44.83636" lon="-0.5034">
        <ele>10</ele>
        <time>2016-03-23T13:35:01Z</time>
      </trkpt>
      <trkpt lat="44.83635" lon="-0.5035">
        <ele>11</ele>
        <time>2016-03-23T13:35:06Z</time>
      </trkpt>
      <trkpt lat="44.83635" lon="-0.50361">
        <ele>11</ele>
        <time>2016-03-23T13:35:11Z</time>
      </trkpt>
      <trkpt lat="44.83633" lon="-0.50373">
        <ele>13</ele>
        <time>2016-03-23T13:35:18Z</time>
      </trkpt>
      <trkpt lat="44.83633" lon="-0.50384">
        <ele>15</ele>
        <time>2016-03-23T13:35:27Z</time>
      </trkpt>
      <trkpt lat="44.83634" lon="-0.50396">
        <ele>15</ele>
        <time>2016-03-23T13:35:34Z</time>
      </trkpt>
      <trkpt lat="44.83634" lon="-0.50408">
        <ele>15</ele>
        <time>2016-03-23T13:35:42Z</time>
      </trkpt>
      <trkpt lat="44.83633" lon="-0.50419">
        <ele>15</ele>
        <time>2016-03-23T13:35:49Z</time>
      </trkpt>
      <trkpt lat="44.83633" lon="-0.50431">
        <ele>14</ele>
        <time>2016-03-23T13:35:55Z</time>
      </trkpt>
      <trkpt lat="44.83633" lon="-0.50443">
        <ele>14</ele>
        <time>2016-03-23T13:36:04Z</time>
      </trkpt>
      <trkpt lat="44.83632" lon="-0.50455">
        <ele>11</ele>
        <time>2016-03-23T13:36:11Z</time>
      </trkpt>
      <trkpt lat="44.83631" lon="-0.50466">
        <ele>9</ele>
        <time>2016-03-23T13:36:17Z</time>
      </trkpt>
      <trkpt lat="44.83631" lon="-0.50477">
        <ele>9</ele>
        <time>2016-03-23T13:36:24Z</time>
      </trkpt>
      <trkpt lat="44.8363" lon="-0.50489">
        <ele>8</ele>
        <time>2016-03-23T13:36:33Z</time>
      </trkpt>
      <trkpt lat="44.83628" lon="-0.50501">
        <ele>7</ele>
        <time>2016-03-23T13:36:43Z</time>
      </trkpt>
      <trkpt lat="44.83626" lon="-0.50513">
        <ele>9</ele>
        <time>2016-03-23T13:36:50Z</time>
      </trkpt>
      <trkpt lat="44.83627" lon="-0.50524">
        <ele>6</ele>
        <time>2016-03-23T13:36:56Z</time>
      </trkpt>
      <trkpt lat="44.8363" lon="-0.50536">
        <ele>6</ele>
        <time>2016-03-23T13:37:04Z</time>
      </trkpt>
      <trkpt lat="44.8363" lon="-0.50546">
        <ele>5</ele>
        <time>2016-03-23T13:37:11Z</time>
      </trkpt>
      <trkpt lat="44.83632" lon="-0.50558">
        <ele>7</ele>
        <time>2016-03-23T13:37:16Z</time>
      </trkpt>
      <trkpt lat="44.83637" lon="-0.50566">
        <ele>7</ele>
        <time>2016-03-23T13:37:24Z</time>
      </trkpt>
      <trkpt lat="44.83642" lon="-0.50576">
        <ele>8</ele>
        <time>2016-03-23T13:37:31Z</time>
      </trkpt>
      <trkpt lat="44.83649" lon="-0.50579">
        <ele>7</ele>
        <time>2016-03-23T13:37:38Z</time>
      </trkpt>
      <trkpt lat="44.83658" lon="-0.5058">
        <ele>6</ele>
        <time>2016-03-23T13:37:45Z</time>
      </trkpt>
      <trkpt lat="44.83666" lon="-0.50581">
        <ele>6</ele>
        <time>2016-03-23T13:37:52Z</time>
      </trkpt>
      <trkpt lat="44.83674" lon="-0.50582">
        <ele>6</ele>
        <time>2016-03-23T13:37:58Z</time>
      </trkpt>
      <trkpt lat="44.83682" lon="-0.50578">
        <ele>6</ele>
        <time>2016-03-23T13:38:06Z</time>
      </trkpt>
      <trkpt lat="44.8369" lon="-0.50574">
        <ele>6</ele>
        <time>2016-03-23T13:38:14Z</time>
      </trkpt>
      <trkpt lat="44.83698" lon="-0.50572">
        <ele>6</ele>
        <time>2016-03-23T13:38:22Z</time>
      </trkpt>
      <trkpt lat="44.83706" lon="-0.50573">
        <ele>7</ele>
        <time>2016-03-23T13:38:28Z</time>
      </trkpt>
      <trkpt lat="44.83715" lon="-0.5057">
        <ele>7</ele>
        <time>2016-03-23T13:38:36Z</time>
      </trkpt>
      <trkpt lat="44.83722" lon="-0.50564">
        <ele>4</ele>
        <time>2016-03-23T13:38:45Z</time>
      </trkpt>
      <trkpt lat="44.8373" lon="-0.50562">
        <ele>1</ele>
        <time>2016-03-23T13:38:52Z</time>
      </trkpt>
      <trkpt lat="44.83739" lon="-0.50564">
        <ele>63.8</ele>
        <time>2016-03-23T13:38:59Z</time>
      </trkpt>
      <trkpt lat="44.83747" lon="-0.50565">
        <ele>63.7</ele>
        <time>2016-03-23T13:39:07Z</time>
      </trkpt>
      <trkpt lat="44.83754" lon="-0.50566">
        <ele>64</ele>
        <time>2016-03-23T13:39:13Z</time>
      </trkpt>
      <trkpt lat="44.83762" lon="-0.50566">
        <ele>1</ele>
        <time>2016-03-23T13:39:18Z</time>
      </trkpt>
      <trkpt lat="44.8377" lon="-0.50564">
        <ele>3</ele>
        <time>2016-03-23T13:39:24Z</time>
      </trkpt>
      <trkpt lat="44.83778" lon="-0.50564">
        <ele>3</ele>
        <time>2016-03-23T13:39:30Z</time>
      </trkpt>
      <trkpt lat="44.83786" lon="-0.50567">
        <ele>3</ele>
        <time>2016-03-23T13:39:37Z</time>
      </trkpt>
      <trkpt lat="44.83795" lon="-0.50569">
        <ele>3</ele>
        <time>2016-03-23T13:39:45Z</time>
      </trkpt>
      <trkpt lat="44.83804" lon="-0.50569">
        <ele>5</ele>
        <time>2016-03-23T13:39:52Z</time>
      </trkpt>
      <trkpt lat="44.83812" lon="-0.50567">
        <ele>8</ele>
        <time>2016-03-23T13:39:57Z</time>
      </trkpt>
      <trkpt lat="44.83819" lon="-0.50565">
        <ele>9</ele>
        <time>2016-03-23T13:40:02Z</time>
      </trkpt>
      <trkpt lat="44.83828" lon="-0.50566">
        <ele>10</ele>
        <time>2016-03-23T13:40:09Z</time>
      </trkpt>
      <trkpt lat="44.83836" lon="-0.50569">
        <ele>10</ele>
        <time>2016-03-23T13:40:15Z</time>
      </trkpt>
      <trkpt lat="44.83843" lon="-0.50575">
        <ele>9</ele>
        <time>2016-03-23T13:40:23Z</time>
      </trkpt>
      <trkpt lat="44.8385" lon="-0.50582">
        <ele>10</ele>
        <time>2016-03-23T13:40:31Z</time>
      </trkpt>
      <trkpt lat="44.83857" lon="-0.50588">
        <ele>12</ele>
        <time>2016-03-23T13:40:38Z</time>
      </trkpt>
      <trkpt lat="44.83865" lon="-0.50591">
        <ele>13</ele>
        <time>2016-03-23T13:40:45Z</time>
      </trkpt>
      <trkpt lat="44.83873" lon="-0.50597">
        <ele>13</ele>
        <time>2016-03-23T13:40:52Z</time>
      </trkpt>
      <trkpt lat="44.8388" lon="-0.50599">
        <ele>12</ele>
        <time>2016-03-23T13:40:58Z</time>
      </trkpt>
      <trkpt lat="44.83888" lon="-0.50603">
        <ele>13</ele>
        <time>2016-03-23T13:41:05Z</time>
      </trkpt>
      <trkpt lat="44.83896" lon="-0.50604">
        <ele>12</ele>
        <time>2016-03-23T13:41:14Z</time>
      </trkpt>
      <trkpt lat="44.83905" lon="-0.50604">
        <ele>11</ele>
        <time>2016-03-23T13:41:21Z</time>
      </trkpt>
      <trkpt lat="44.83913" lon="-0.50602">
        <ele>8</ele>
        <time>2016-03-23T13:41:30Z</time>
      </trkpt>
      <trkpt lat="44.83922" lon="-0.50603">
        <ele>7</ele>
        <time>2016-03-23T13:41:38Z</time>
      </trkpt>
      <trkpt lat="44.8393" lon="-0.506">
        <ele>6</ele>
        <time>2016-03-23T13:41:45Z</time>
      </trkpt>
      <trkpt lat="44.83937" lon="-0.50597">
        <ele>9</ele>
        <time>2016-03-23T13:41:51Z</time>
      </trkpt>
      <trkpt lat="44.83944" lon="-0.50598">
        <ele>11</ele>
        <time>2016-03-23T13:41:57Z</time>
      </trkpt>
      <trkpt lat="44.83952" lon="-0.50598">
        <ele>12</ele>
        <time>2016-03-23T13:42:02Z</time>
      </trkpt>
      <trkpt lat="44.8396" lon="-0.506">
        <ele>12</ele>
        <time>2016-03-23T13:42:08Z</time>
      </trkpt>
      <trkpt lat="44.83967" lon="-0.50607">
        <ele>13</ele>
        <time>2016-03-23T13:42:15Z</time>
      </trkpt>
      <trkpt lat="44.83974" lon="-0.50612">
        <ele>14</ele>
        <time>2016-03-23T13:42:21Z</time>
      </trkpt>
      <trkpt lat="44.83982" lon="-0.50617">
        <ele>15</ele>
        <time>2016-03-23T13:42:29Z</time>
      </trkpt>
      <trkpt lat="44.83989" lon="-0.50622">
        <ele>15</ele>
        <time>2016-03-23T13:42:35Z</time>
      </trkpt>
      <trkpt lat="44.83996" lon="-0.50628">
        <ele>15</ele>
        <time>2016-03-23T13:42:42Z</time>
      </trkpt>
      <trkpt lat="44.84004" lon="-0.50632">
        <ele>14</ele>
        <time>2016-03-23T13:42:48Z</time>
      </trkpt>
      <trkpt lat="44.84008" lon="-0.50641">
        <ele>13</ele>
        <time>2016-03-23T13:42:54Z</time>
      </trkpt>
      <trkpt lat="44.84013" lon="-0.5065">
        <ele>11</ele>
        <time>2016-03-23T13:43:01Z</time>
      </trkpt>
      <trkpt lat="44.84018" lon="-0.5066">
        <ele>10</ele>
        <time>2016-03-23T13:43:07Z</time>
      </trkpt>
      <trkpt lat="44.84021" lon="-0.50672">
        <ele>12</ele>
        <time>2016-03-23T13:43:13Z</time>
      </trkpt>
      <trkpt lat="44.84025" lon="-0.50682">
        <ele>14</ele>
        <time>2016-03-23T13:43:20Z</time>
      </trkpt>
      <trkpt lat="44.8403" lon="-0.50691">
        <ele>13</ele>
        <time>2016-03-23T13:43:27Z</time>
      </trkpt>
      <trkpt lat="44.84037" lon="-0.50698">
        <ele>10</ele>
        <time>2016-03-23T13:43:35Z</time>
      </trkpt>
      <trkpt lat="44.84042" lon="-0.50707">
        <ele>8</ele>
        <time>2016-03-23T13:43:42Z</time>
      </trkpt>
      <trkpt lat="44.84048" lon="-0.50715">
        <ele>10</ele>
        <time>2016-03-23T13:43:50Z</time>
      </trkpt>
      <trkpt lat="44.84053" lon="-0.50723">
        <ele>12</ele>
        <time>2016-03-23T13:43:57Z</time>
      </trkpt>
      <trkpt lat="44.84059" lon="-0.5073">
        <ele>14</ele>
        <time>2016-03-23T13:44:05Z</time>
      </trkpt>
      <trkpt lat="44.84066" lon="-0.50738">
        <ele>15</ele>
        <time>2016-03-23T13:44:13Z</time>
      </trkpt>
      <trkpt lat="44.84069" lon="-0.5075">
        <ele>15</ele>
        <time>2016-03-23T13:44:22Z</time>
      </trkpt>
      <trkpt lat="44.84073" lon="-0.50761">
        <ele>15</ele>
        <time>2016-03-23T13:44:29Z</time>
      </trkpt>
      <trkpt lat="44.84077" lon="-0.5077">
        <ele>14</ele>
        <time>2016-03-23T13:44:35Z</time>
      </trkpt>
      <trkpt lat="44.8408" lon="-0.5078">
        <ele>12</ele>
        <time>2016-03-23T13:44:42Z</time>
      </trkpt>
      <trkpt lat="44.84085" lon="-0.50791">
        <ele>13</ele>
        <time>2016-03-23T13:44:49Z</time>
      </trkpt>
      <trkpt lat="44.8409" lon="-0.50801">
        <ele>13</ele>
        <time>2016-03-23T13:44:57Z</time>
      </trkpt>
      <trkpt lat="44.84095" lon="-0.5081">
        <ele>15</ele>
        <time>2016-03-23T13:45:05Z</time>
      </trkpt>
      <trkpt lat="44.841" lon="-0.5082">
        <ele>14</ele>
        <time>2016-03-23T13:45:13Z</time>
      </trkpt>
      <trkpt lat="44.84105" lon="-0.50829">
        <ele>16</ele>
        <time>2016-03-23T13:45:19Z</time>
      </trkpt>
      <trkpt lat="44.84112" lon="-0.50836">
        <ele>19</ele>
        <time>2016-03-23T13:45:25Z</time>
      </trkpt>
      <trkpt lat="44.84118" lon="-0.50841">
        <ele>16</ele>
        <time>2016-03-23T13:45:32Z</time>
      </trkpt>
      <trkpt lat="44.84127" lon="-0.50844">
        <ele>17</ele>
        <time>2016-03-23T13:45:38Z</time>
      </trkpt>
      <trkpt lat="44.84134" lon="-0.50849">
        <ele>15</ele>
        <time>2016-03-23T13:45:45Z</time>
      </trkpt>
      <trkpt lat="44.84141" lon="-0.50856">
        <ele>16</ele>
        <time>2016-03-23T13:45:53Z</time>
      </trkpt>
      <trkpt lat="44.84149" lon="-0.50862">
        <ele>14</ele>
        <time>2016-03-23T13:46:02Z</time>
      </trkpt>
      <trkpt lat="44.84157" lon="-0.50864">
        <ele>13</ele>
        <time>2016-03-23T13:46:08Z</time>
      </trkpt>
      <trkpt lat="44.84166" lon="-0.50866">
        <ele>13</ele>
        <time>2016-03-23T13:46:13Z</time>
      </trkpt>
      <trkpt lat="44.84172" lon="-0.50873">
        <ele>13</ele>
        <time>2016-03-23T13:46:20Z</time>
      </trkpt>
      <trkpt lat="44.84179" lon="-0.5088">
        <ele>15</ele>
        <time>2016-03-23T13:46:26Z</time>
      </trkpt>
      <trkpt lat="44.84182" lon="-0.50891">
        <ele>15</ele>
        <time>2016-03-23T13:46:33Z</time>
      </trkpt>
      <trkpt lat="44.8419" lon="-0.50893">
        <ele>12</ele>
        <time>2016-03-23T13:46:40Z</time>
      </trkpt>
      <trkpt lat="44.84198" lon="-0.50899">
        <ele>11</ele>
        <time>2016-03-23T13:46:50Z</time>
      </trkpt>
      <trkpt lat="44.84204" lon="-0.50906">
        <ele>8</ele>
        <time>2016-03-23T13:46:58Z</time>
      </trkpt>
      <trkpt lat="44.84211" lon="-0.5091">
        <ele>9</ele>
        <time>2016-03-23T13:47:03Z</time>
      </trkpt>
      <trkpt lat="44.84218" lon="-0.50917">
        <ele>10</ele>
        <time>2016-03-23T13:47:10Z</time>
      </trkpt>
      <trkpt lat="44.84226" lon="-0.50923">
        <ele>12</ele>
        <time>2016-03-23T13:47:16Z</time>
      </trkpt>
      <trkpt lat="44.84233" lon="-0.5093">
        <ele>12</ele>
        <time>2016-03-23T13:47:23Z</time>
      </trkpt>
      <trkpt lat="44.84239" lon="-0.50938">
        <ele>11</ele>
        <time>2016-03-23T13:47:30Z</time>
      </trkpt>
      <trkpt lat="44.84246" lon="-0.50945">
        <ele>11</ele>
        <time>2016-03-23T13:47:36Z</time>
      </trkpt>
      <trkpt lat="44.8425" lon="-0.50957">
        <ele>11</ele>
        <time>2016-03-23T13:47:43Z</time>
      </trkpt>
      <trkpt lat="44.84256" lon="-0.50966">
        <ele>10</ele>
        <time>2016-03-23T13:47:49Z</time>
      </trkpt>
      <trkpt lat="44.84262" lon="-0.50973">
        <ele>7</ele>
        <time>2016-03-23T13:47:56Z</time>
      </trkpt>
      <trkpt lat="44.84269" lon="-0.5098">
        <ele>5</ele>
        <time>2016-03-23T13:48:03Z</time>
      </trkpt>
      <trkpt lat="44.84274" lon="-0.50991">
        <ele>4</ele>
        <time>2016-03-23T13:48:10Z</time>
      </trkpt>
      <trkpt lat="44.84278" lon="-0.51001">
        <ele>2</ele>
        <time>2016-03-23T13:48:17Z</time>
      </trkpt>
      <trkpt lat="44.84281" lon="-0.51012">
        <ele>3</ele>
        <time>2016-03-23T13:48:22Z</time>
      </trkpt>
      <trkpt lat="44.84285" lon="-0.51023">
        <ele>5</ele>
        <time>2016-03-23T13:48:30Z</time>
      </trkpt>
      <trkpt lat="44.84289" lon="-0.51034">
        <ele>4</ele>
        <time>2016-03-23T13:48:37Z</time>
      </trkpt>
      <trkpt lat="44.84293" lon="-0.51043">
        <ele>3</ele>
        <time>2016-03-23T13:48:43Z</time>
      </trkpt>
      <trkpt lat="44.84296" lon="-0.51054">
        <ele>3</ele>
        <time>2016-03-23T13:48:49Z</time>
      </trkpt>
      <trkpt lat="44.843" lon="-0.51065">
        <ele>63.6</ele>
        <time>2016-03-23T13:48:57Z</time>
      </trkpt>
      <trkpt lat="44.84301" lon="-0.51076">
        <ele>63.8</ele>
        <time>2016-03-23T13:49:03Z</time>
      </trkpt>
      <trkpt lat="44.84299" lon="-0.51087">
        <ele>6</ele>
        <time>2016-03-23T13:49:10Z</time>
      </trkpt>
      <trkpt lat="44.84302" lon="-0.51098">
        <ele>6</ele>
        <time>2016-03-23T13:49:19Z</time>
      </trkpt>
      <trkpt lat="44.84309" lon="-0.51105">
        <ele>5</ele>
        <time>2016-03-23T13:49:27Z</time>
      </trkpt>
      <trkpt lat="44.84314" lon="-0.51115">
        <ele>6</ele>
        <time>2016-03-23T13:49:35Z</time>
      </trkpt>
      <trkpt lat="44.84316" lon="-0.51127">
        <ele>8</ele>
        <time>2016-03-23T13:49:41Z</time>
      </trkpt>
      <trkpt lat="44.84313" lon="-0.51137">
        <ele>9</ele>
        <time>2016-03-23T13:49:47Z</time>
      </trkpt>
      <trkpt lat="44.8431" lon="-0.51148">
        <ele>9</ele>
        <time>2016-03-23T13:49:54Z</time>
      </trkpt>
      <trkpt lat="44.84312" lon="-0.5116">
        <ele>8</ele>
        <time>2016-03-23T13:50:05Z</time>
      </trkpt>
      <trkpt lat="44.84314" lon="-0.51171">
        <ele>7</ele>
        <time>2016-03-23T13:50:13Z</time>
      </trkpt>
      <trkpt lat="44.84318" lon="-0.51181">
        <ele>7</ele>
        <time>2016-03-23T13:50:21Z</time>
      </trkpt>
      <trkpt lat="44.84322" lon="-0.51191">
        <ele>6</ele>
        <time>2016-03-23T13:50:29Z</time>
      </trkpt>
      <trkpt lat="44.84323" lon="-0.51203">
        <ele>9</ele>
        <time>2016-03-23T13:50:37Z</time>
      </trkpt>
      <trkpt lat="44.84325" lon="-0.51215">
        <ele>11</ele>
        <time>2016-03-23T13:50:44Z</time>
      </trkpt>
      <trkpt lat="44.84326" lon="-0.51227">
        <ele>10</ele>
        <time>2016-03-23T13:50:51Z</time>
      </trkpt>
      <trkpt lat="44.84327" lon="-0.51238">
        <ele>9</ele>
        <time>2016-03-23T13:50:58Z</time>
      </trkpt>
      <trkpt lat="44.84329" lon="-0.51249">
        <ele>10</ele>
        <time>2016-03-23T13:51:06Z</time>
      </trkpt>
      <trkpt lat="44.8433" lon="-0.51262">
        <ele>9</ele>
        <time>2016-03-23T13:51:15Z</time>
      </trkpt>
      <trkpt lat="44.8433" lon="-0.51273">
        <ele>8</ele>
        <time>2016-03-23T13:51:23Z</time>
      </trkpt>
      <trkpt lat="44.8433" lon="-0.51285">
        <ele>10</ele>
        <time>2016-03-23T13:51:30Z</time>
      </trkpt>
      <trkpt lat="44.8433" lon="-0.51297">
        <ele>11</ele>
        <time>2016-03-23T13:51:39Z</time>
      </trkpt>
      <trkpt lat="44.84331" lon="-0.51309">
        <ele>9</ele>
        <time>2016-03-23T13:51:46Z</time>
      </trkpt>
      <trkpt lat="44.84333" lon="-0.51321">
        <ele>9</ele>
        <time>2016-03-23T13:51:53Z</time>
      </trkpt>
      <trkpt lat="44.84336" lon="-0.51333">
        <ele>7</ele>
        <time>2016-03-23T13:52:02Z</time>
      </trkpt>
      <trkpt lat="44.84335" lon="-0.51345">
        <ele>4</ele>
        <time>2016-03-23T13:52:09Z</time>
      </trkpt>
      <trkpt lat="44.84333" lon="-0.51355">
        <ele>2</ele>
        <time>2016-03-23T13:52:15Z</time>
      </trkpt>
      <trkpt lat="44.84332" lon="-0.51367">
        <ele>1</ele>
        <time>2016-03-23T13:52:20Z</time>
      </trkpt>
      <trkpt lat="44.84328" lon="-0.51376">
        <ele>2</ele>
        <time>2016-03-23T13:52:25Z</time>
      </trkpt>
      <trkpt lat="44.84326" lon="-0.51388">
        <ele>4</ele>
        <time>2016-03-23T13:52:31Z</time>
      </trkpt>
      <trkpt lat="44.84327" lon="-0.514">
        <ele>3</ele>
        <time>2016-03-23T13:52:39Z</time>
      </trkpt>
      <trkpt lat="44.84329" lon="-0.5141">
        <ele>4</ele>
        <time>2016-03-23T13:52:47Z</time>
      </trkpt>
      <trkpt lat="44.84328" lon="-0.51421">
        <ele>6</ele>
        <time>2016-03-23T13:52:51Z</time>
      </trkpt>
      <trkpt lat="44.84324" lon="-0.51431">
        <ele>7</ele>
        <time>2016-03-23T13:52:57Z</time>
      </trkpt>
      <trkpt lat="44.84322" lon="-0.51442">
        <ele>8</ele>
        <time>2016-03-23T13:53:03Z</time>
      </trkpt>
      <trkpt lat="44.84319" lon="-0.51454">
        <ele>7</ele>
        <time>2016-03-23T13:53:10Z</time>
      </trkpt>
      <trkpt lat="44.84316" lon="-0.51464">
        <ele>9</ele>
        <time>2016-03-23T13:53:15Z</time>
      </trkpt>
      <trkpt lat="44.84312" lon="-0.51474">
        <ele>8</ele>
        <time>2016-03-23T13:53:22Z</time>
      </trkpt>
      <trkpt lat="44.84307" lon="-0.51485">
        <ele>9</ele>
        <time>2016-03-23T13:53:29Z</time>
      </trkpt>
      <trkpt lat="44.84303" lon="-0.51495">
        <ele>9</ele>
        <time>2016-03-23T13:53:35Z</time>
      </trkpt>
      <trkpt lat="44.84297" lon="-0.51502">
        <ele>8</ele>
        <time>2016-03-23T13:53:41Z</time>
      </trkpt>
      <trkpt lat="44.84294" lon="-0.51512">
        <ele>8</ele>
        <time>2016-03-23T13:53:47Z</time>
      </trkpt>
      <trkpt lat="44.84288" lon="-0.5152">
        <ele>11</ele>
        <time>2016-03-23T13:53:56Z</time>
      </trkpt>
      <trkpt lat="44.84282" lon="-0.51528">
        <ele>12</ele>
        <time>2016-03-23T13:54:08Z</time>
      </trkpt>
      <trkpt lat="44.84277" lon="-0.51538">
        <ele>12</ele>
        <time>2016-03-23T13:54:16Z</time>
      </trkpt>
      <trkpt lat="44.84273" lon="-0.51549">
        <ele>10</ele>
        <time>2016-03-23T13:54:23Z</time>
      </trkpt>
      <trkpt lat="44.84271" lon="-0.51559">
        <ele>7</ele>
        <time>2016-03-23T13:54:32Z</time>
      </trkpt>
      <trkpt lat="44.84268" lon="-0.51571">
        <ele>9</ele>
        <time>2016-03-23T13:54:37Z</time>
      </trkpt>
      <trkpt lat="44.84263" lon="-0.5158">
        <ele>9</ele>
        <time>2016-03-23T13:54:44Z</time>
      </trkpt>
      <trkpt lat="44.84257" lon="-0.51588">
        <ele>9</ele>
        <time>2016-03-23T13:54:50Z</time>
      </trkpt>
      <trkpt lat="44.84255" lon="-0.516">
        <ele>7</ele>
        <time>2016-03-23T13:54:59Z</time>
      </trkpt>
      <trkpt lat="44.84254" lon="-0.51611">
        <ele>5</ele>
        <time>2016-03-23T13:55:06Z</time>
      </trkpt>
      <trkpt lat="44.8425" lon="-0.51622">
        <ele>5</ele>
        <time>2016-03-23T13:55:13Z</time>
      </trkpt>
      <trkpt lat="44.84248" lon="-0.51634">
        <ele>6</ele>
        <time>2016-03-23T13:55:19Z</time>
      </trkpt>
      <trkpt lat="44.84245" lon="-0.51644">
        <ele>7</ele>
        <time>2016-03-23T13:55:25Z</time>
      </trkpt>
      <trkpt lat="44.84243" lon="-0.51656">
        <ele>6</ele>
        <time>2016-03-23T13:55:32Z</time>
      </trkpt>
      <trkpt lat="44.8424" lon="-0.51666">
        <ele>5</ele>
        <time>2016-03-23T13:55:39Z</time>
      </trkpt>
      <trkpt lat="44.84239" lon="-0.51677">
        <ele>6</ele>
        <time>2016-03-23T13:55:44Z</time>
      </trkpt>
      <trkpt lat="44.84237" lon="-0.51688">
        <ele>5</ele>
        <time>2016-03-23T13:55:50Z</time>
      </trkpt>
      <trkpt lat="44.84237" lon="-0.517">
        <ele>5</ele>
        <time>2016-03-23T13:55:57Z</time>
      </trkpt>
      <trkpt lat="44.84236" lon="-0.51711">
        <ele>4</ele>
        <time>2016-03-23T13:56:04Z</time>
      </trkpt>
      <trkpt lat="44.84235" lon="-0.51721">
        <ele>3</ele>
        <time>2016-03-23T13:56:10Z</time>
      </trkpt>
      <trkpt lat="44.84234" lon="-0.51733">
        <ele>3</ele>
        <time>2016-03-23T13:56:18Z</time>
      </trkpt>
      <trkpt lat="44.84233" lon="-0.51743">
        <ele>2</ele>
        <time>2016-03-23T13:56:26Z</time>
      </trkpt>
      <trkpt lat="44.84232" lon="-0.51755">
        <ele>1</ele>
        <time>2016-03-23T13:56:32Z</time>
      </trkpt>
      <trkpt lat="44.84231" lon="-0.51765">
        <ele>1</ele>
        <time>2016-03-23T13:56:38Z</time>
      </trkpt>
      <trkpt lat="44.84231" lon="-0.51776">
        <ele>64.7</ele>
        <time>2016-03-23T13:56:43Z</time>
      </trkpt>
      <trkpt lat="44.84226" lon="-0.51787">
        <ele>64.8</ele>
        <time>2016-03-23T13:56:50Z</time>
      </trkpt>
      <trkpt lat="44.84222" lon="-0.51798">
        <ele>65</ele>
        <time>2016-03-23T13:56:56Z</time>
      </trkpt>
      <trkpt lat="44.84219" lon="-0.51808">
        <ele>65.1</ele>
        <time>2016-03-23T13:57:02Z</time>
      </trkpt>
      <trkpt lat="44.84217" lon="-0.51821">
        <ele>5</ele>
        <time>2016-03-23T13:57:10Z</time>
      </trkpt>
      <trkpt lat="44.84214" lon="-0.51831">
        <ele>6</ele>
        <time>2016-03-23T13:57:16Z</time>
      </trkpt>
      <trkpt lat="44.84212" lon="-0.51842">
        <ele>6</ele>
        <time>2016-03-23T13:57:22Z</time>
      </trkpt>
      <trkpt lat="44.84209" lon="-0.51853">
        <ele>7</ele>
        <time>2016-03-23T13:57:27Z</time>
      </trkpt>
      <trkpt lat="44.84207" lon="-0.51865">
        <ele>6</ele>
        <time>2016-03-23T13:57:35Z</time>
      </trkpt>
      <trkpt lat="44.84207" lon="-0.51877">
        <ele>6</ele>
        <time>2016-03-23T13:57:43Z</time>
      </trkpt>
      <trkpt lat="44.84207" lon="-0.51889">
        <ele>4</ele>
        <time>2016-03-23T13:57:50Z</time>
      </trkpt>
      <trkpt lat="44.84206" lon="-0.51901">
        <ele>5</ele>
        <time>2016-03-23T13:57:57Z</time>
      </trkpt>
      <trkpt lat="44.84205" lon="-0.51912">
        <ele>6</ele>
        <time>2016-03-23T13:58:06Z</time>
      </trkpt>
      <trkpt lat="44.84206" lon="-0.51924">
        <ele>8</ele>
        <time>2016-03-23T13:58:14Z</time>
      </trkpt>
      <trkpt lat="44.84206" lon="-0.51936">
        <ele>8</ele>
        <time>2016-03-23T13:58:20Z</time>
      </trkpt>
      <trkpt lat="44.84207" lon="-0.51948">
        <ele>6</ele>
        <time>2016-03-23T13:58:29Z</time>
      </trkpt>
      <trkpt lat="44.84212" lon="-0.51961">
        <ele>9</ele>
        <time>2016-03-23T13:58:34Z</time>
      </trkpt>
      <trkpt lat="44.84214" lon="-0.51972">
        <ele>9</ele>
        <time>2016-03-23T13:58:41Z</time>
      </trkpt>
      <trkpt lat="44.84215" lon="-0.51985">
        <ele>9</ele>
        <time>2016-03-23T13:58:51Z</time>
      </trkpt>
      <trkpt lat="44.84215" lon="-0.51987">
        <ele>9</ele>
        <time>2016-03-23T13:59:21Z</time>
      </trkpt>
      <trkpt lat="44.84211" lon="-0.52">
        <ele>14</ele>
        <time>2016-03-23T13:59:25Z</time>
      </trkpt>
      <trkpt lat="44.84214" lon="-0.5201">
        <ele>12</ele>
        <time>2016-03-23T13:59:36Z</time>
      </trkpt>
      <trkpt lat="44.84217" lon="-0.52022">
        <ele>10</ele>
        <time>2016-03-23T13:59:45Z</time>
      </trkpt>
      <trkpt lat="44.84215" lon="-0.52034">
        <ele>6</ele>
        <time>2016-03-23T13:59:52Z</time>
      </trkpt>
      <trkpt lat="44.84216" lon="-0.52046">
        <ele>1</ele>
        <time>2016-03-23T13:59:59Z</time>
      </trkpt>
      <trkpt lat="44.84219" lon="-0.52058">
        <ele>2</ele>
        <time>2016-03-23T14:00:07Z</time>
      </trkpt>
      <trkpt lat="44.84222" lon="-0.52069">
        <ele>1</ele>
        <time>2016-03-23T14:00:16Z</time>
      </trkpt>
      <trkpt lat="44.84225" lon="-0.52079">
        <ele>64.9</ele>
        <time>2016-03-23T14:00:22Z</time>
      </trkpt>
      <trkpt lat="44.84227" lon="-0.52091">
        <ele>-2</ele>
        <time>2016-03-23T14:00:30Z</time>
      </trkpt>
      <trkpt lat="44.84228" lon="-0.52102">
        <ele>-5</ele>
        <time>2016-03-23T14:00:36Z</time>
      </trkpt>
      <trkpt lat="44.8423" lon="-0.52114">
        <ele>-5</ele>
        <time>2016-03-23T14:00:41Z</time>
      </trkpt>
      <trkpt lat="44.84231" lon="-0.52125">
        <ele>-5</ele>
        <time>2016-03-23T14:00:47Z</time>
      </trkpt>
      <trkpt lat="44.84232" lon="-0.52137">
        <ele>-5</ele>
        <time>2016-03-23T14:00:55Z</time>
      </trkpt>
      <trkpt lat="44.84232" lon="-0.52149">
        <ele>-3</ele>
        <time>2016-03-23T14:01:02Z</time>
      </trkpt>
      <trkpt lat="44.84235" lon="-0.5216">
        <ele>64</ele>
        <time>2016-03-23T14:01:08Z</time>
      </trkpt>
      <trkpt lat="44.84233" lon="-0.52172">
        <ele>-1</ele>
        <time>2016-03-23T14:01:14Z</time>
      </trkpt>
      <trkpt lat="44.84235" lon="-0.52183">
        <ele>-5</ele>
        <time>2016-03-23T14:01:20Z</time>
      </trkpt>
      <trkpt lat="44.84237" lon="-0.52194">
        <ele>-4</ele>
        <time>2016-03-23T14:01:25Z</time>
      </trkpt>
      <trkpt lat="44.84239" lon="-0.52205">
        <ele>-5</ele>
        <time>2016-03-23T14:01:30Z</time>
      </trkpt>
      <trkpt lat="44.84241" lon="-0.52217">
        <ele>-5</ele>
        <time>2016-03-23T14:01:36Z</time>
      </trkpt>
      <trkpt lat="44.84243" lon="-0.52228">
        <ele>-4</ele>
        <time>2016-03-23T14:01:41Z</time>
      </trkpt>
      <trkpt lat="44.84242" lon="-0.52241">
        <ele>-4</ele>
        <time>2016-03-23T14:01:47Z</time>
      </trkpt>
      <trkpt lat="44.84238" lon="-0.52251">
        <ele>-4</ele>
        <time>2016-03-23T14:01:54Z</time>
      </trkpt>
      <trkpt lat="44.84233" lon="-0.52261">
        <ele>-3</ele>
        <time>2016-03-23T14:02:01Z</time>
      </trkpt>
      <trkpt lat="44.84227" lon="-0.52268">
        <ele>62</ele>
        <time>2016-03-23T14:02:06Z</time>
      </trkpt>
      <trkpt lat="44.84219" lon="-0.52272">
        <ele>3</ele>
        <time>2016-03-23T14:02:12Z</time>
      </trkpt>
      <trkpt lat="44.8421" lon="-0.52275">
        <ele>9</ele>
        <time>2016-03-23T14:02:23Z</time>
      </trkpt>
      <trkpt lat="44.84202" lon="-0.52274">
        <ele>13</ele>
        <time>2016-03-23T14:02:28Z</time>
      </trkpt>
      <trkpt lat="44.84193" lon="-0.52271">
        <ele>16</ele>
        <time>2016-03-23T14:02:38Z</time>
      </trkpt>
      <trkpt lat="44.84185" lon="-0.5227">
        <ele>17</ele>
        <time>2016-03-23T14:02:44Z</time>
      </trkpt>
      <trkpt lat="44.84177" lon="-0.52267">
        <ele>17</ele>
        <time>2016-03-23T14:02:50Z</time>
      </trkpt>
      <trkpt lat="44.84171" lon="-0.5226">
        <ele>18</ele>
        <time>2016-03-23T14:02:56Z</time>
      </trkpt>
      <trkpt lat="44.84163" lon="-0.52255">
        <ele>17</ele>
        <time>2016-03-23T14:03:05Z</time>
      </trkpt>
      <trkpt lat="44.84155" lon="-0.52254">
        <ele>15</ele>
        <time>2016-03-23T14:03:14Z</time>
      </trkpt>
      <trkpt lat="44.84147" lon="-0.5225">
        <ele>16</ele>
        <time>2016-03-23T14:03:20Z</time>
      </trkpt>
      <trkpt lat="44.8414" lon="-0.52245">
        <ele>19</ele>
        <time>2016-03-23T14:03:26Z</time>
      </trkpt>
      <trkpt lat="44.84132" lon="-0.52242">
        <ele>18</ele>
        <time>2016-03-23T14:03:35Z</time>
      </trkpt>
      <trkpt lat="44.84127" lon="-0.5224">
        <ele>15</ele>
        <time>2016-03-23T14:04:12Z</time>
      </trkpt>
      <trkpt lat="44.84118" lon="-0.52239">
        <ele>13</ele>
        <time>2016-03-23T14:04:16Z</time>
      </trkpt>
      <trkpt lat="44.84118" lon="-0.52239">
        <ele>13</ele>
        <time>2016-03-23T14:05:38Z</time>
      </trkpt>
      <trkpt lat="44.84109" lon="-0.52236">
        <ele>20</ele>
        <time>2016-03-23T14:05:43Z</time>
      </trkpt>
      <trkpt lat="44.84111" lon="-0.52235">
        <ele>4</ele>
        <time>2016-03-23T14:16:09Z</time>
      </trkpt>
      <trkpt lat="44.84118" lon="-0.52242">
        <ele>12</ele>
        <time>2016-03-23T14:16:13Z</time>
      </trkpt>
      <trkpt lat="44.84118" lon="-0.52242">
        <ele>12</ele>
        <time>2016-03-23T14:16:21Z</time>
      </trkpt>
      <trkpt lat="44.84111" lon="-0.52233">
        <ele>12</ele>
        <time>2016-03-23T14:16:25Z</time>
      </trkpt>
      <trkpt lat="44.84104" lon="-0.5224">
        <ele>9</ele>
        <time>2016-03-23T14:18:32Z</time>
      </trkpt>
      <trkpt lat="44.841" lon="-0.52251">
        <ele>11</ele>
        <time>2016-03-23T14:18:42Z</time>
      </trkpt>
      <trkpt lat="44.84093" lon="-0.52259">
        <ele>11</ele>
        <time>2016-03-23T14:18:53Z</time>
      </trkpt>
      <trkpt lat="44.84086" lon="-0.52266">
        <ele>9</ele>
        <time>2016-03-23T14:19:04Z</time>
      </trkpt>
      <trkpt lat="44.84085" lon="-0.5227">
        <ele>8</ele>
        <time>2016-03-23T14:19:51Z</time>
      </trkpt>
      <trkpt lat="44.84087" lon="-0.52284">
        <ele>1</ele>
        <time>2016-03-23T14:19:54Z</time>
      </trkpt>
      <trkpt lat="44.84087" lon="-0.52284">
        <ele>1</ele>
        <time>2016-03-23T14:19:54Z</time>
      </trkpt>
    </trkseg>
  </trk>
</gpx>